<?xml version="1.0" encoding="UTF-8" standalone="no" ?>
<gpx xmlns="http://www.topografix.com/GPX/1/1" xmlns:xsi="http://www.w3.org/2001/XMLSchema-instance" xsi:schemaLocation="http://www.topografix.com/GPX/1/1 http://www.topografix.com/GPX/1/1/gpx.xsd" version="1.1" creator="VisuGPX - https://www.visugpx.com">
  <metadata>
    <name>sentir balcon, menuires</name>
    <desc><![CDATA[File with points/tracks from Locus Map/3.32.2]]></desc>
  </metadata>
  <trk>
    <name><![CDATA[2018-08-28 06:52:03]]></name>
    <trkseg>
      <trkpt lat="45.33072" lon="6.53647">
        <ele>1838.07</ele>
        <time>2018-08-28T04:52:03.000Z</time>
      </trkpt>
      <trkpt lat="45.33057" lon="6.53645">
        <ele>1835.7</ele>
        <time>2018-08-28T04:52:13.000Z</time>
      </trkpt>
      <trkpt lat="45.33047" lon="6.53637">
        <ele>1833.08</ele>
        <time>2018-08-28T04:52:23.000Z</time>
      </trkpt>
      <trkpt lat="45.33035" lon="6.53639">
        <ele>1831.29</ele>
        <time>2018-08-28T04:52:33.000Z</time>
      </trkpt>
      <trkpt lat="45.3302" lon="6.53639">
        <ele>1835.99</ele>
        <time>2018-08-28T04:52:43.000Z</time>
      </trkpt>
      <trkpt lat="45.33007" lon="6.5364">
        <ele>1835.99</ele>
        <time>2018-08-28T04:52:53.000Z</time>
      </trkpt>
      <trkpt lat="45.33007" lon="6.53631">
        <ele>1835</ele>
        <time>2018-08-28T04:53:03.000Z</time>
      </trkpt>
      <trkpt lat="45.33003" lon="6.53635">
        <ele>1833.25</ele>
        <time>2018-08-28T04:53:13.000Z</time>
      </trkpt>
      <trkpt lat="45.32993" lon="6.5365">
        <ele>1829.8</ele>
        <time>2018-08-28T04:53:23.000Z</time>
      </trkpt>
      <trkpt lat="45.32994" lon="6.53667">
        <ele>1829</ele>
        <time>2018-08-28T04:53:33.000Z</time>
      </trkpt>
      <trkpt lat="45.33003" lon="6.53677">
        <ele>1828</ele>
        <time>2018-08-28T04:53:43.000Z</time>
      </trkpt>
      <trkpt lat="45.33025" lon="6.53683">
        <ele>1828</ele>
        <time>2018-08-28T04:53:53.000Z</time>
      </trkpt>
      <trkpt lat="45.33035" lon="6.53682">
        <ele>1827</ele>
        <time>2018-08-28T04:54:03.000Z</time>
      </trkpt>
      <trkpt lat="45.33046" lon="6.53682">
        <ele>1831.1</ele>
        <time>2018-08-28T04:54:13.000Z</time>
      </trkpt>
      <trkpt lat="45.33062" lon="6.53689">
        <ele>1831.94</ele>
        <time>2018-08-28T04:54:23.000Z</time>
      </trkpt>
      <trkpt lat="45.33078" lon="6.53693">
        <ele>1831.95</ele>
        <time>2018-08-28T04:54:33.000Z</time>
      </trkpt>
      <trkpt lat="45.33092" lon="6.537">
        <ele>1829.44</ele>
        <time>2018-08-28T04:54:43.000Z</time>
      </trkpt>
      <trkpt lat="45.33104" lon="6.53705">
        <ele>1828.02</ele>
        <time>2018-08-28T04:54:53.000Z</time>
      </trkpt>
      <trkpt lat="45.33119" lon="6.53708">
        <ele>1826</ele>
        <time>2018-08-28T04:55:03.000Z</time>
      </trkpt>
      <trkpt lat="45.33125" lon="6.53707">
        <ele>1827.79</ele>
        <time>2018-08-28T04:55:13.000Z</time>
      </trkpt>
      <trkpt lat="45.33142" lon="6.53718">
        <ele>1827.69</ele>
        <time>2018-08-28T04:55:23.000Z</time>
      </trkpt>
      <trkpt lat="45.33163" lon="6.53724">
        <ele>1833.95</ele>
        <time>2018-08-28T04:55:33.000Z</time>
      </trkpt>
      <trkpt lat="45.33183" lon="6.53729">
        <ele>1839.46</ele>
        <time>2018-08-28T04:55:43.000Z</time>
      </trkpt>
      <trkpt lat="45.33201" lon="6.53733">
        <ele>1838.06</ele>
        <time>2018-08-28T04:55:53.000Z</time>
      </trkpt>
      <trkpt lat="45.33207" lon="6.53728">
        <ele>1838.05</ele>
        <time>2018-08-28T04:56:03.000Z</time>
      </trkpt>
      <trkpt lat="45.33212" lon="6.53729">
        <ele>1836</ele>
        <time>2018-08-28T04:56:13.000Z</time>
      </trkpt>
      <trkpt lat="45.33219" lon="6.53747">
        <ele>1837.73</ele>
        <time>2018-08-28T04:56:23.000Z</time>
      </trkpt>
      <trkpt lat="45.33207" lon="6.53761">
        <ele>1839.05</ele>
        <time>2018-08-28T04:56:33.000Z</time>
      </trkpt>
      <trkpt lat="45.33195" lon="6.53761">
        <ele>1838</ele>
        <time>2018-08-28T04:56:43.000Z</time>
      </trkpt>
      <trkpt lat="45.33188" lon="6.53764">
        <ele>1838.06</ele>
        <time>2018-08-28T04:56:53.000Z</time>
      </trkpt>
      <trkpt lat="45.33167" lon="6.53754">
        <ele>1840.96</ele>
        <time>2018-08-28T04:57:03.000Z</time>
      </trkpt>
      <trkpt lat="45.33151" lon="6.5375">
        <ele>1843.98</ele>
        <time>2018-08-28T04:57:13.000Z</time>
      </trkpt>
      <trkpt lat="45.33142" lon="6.53746">
        <ele>1845.78</ele>
        <time>2018-08-28T04:57:23.000Z</time>
      </trkpt>
      <trkpt lat="45.33124" lon="6.53744">
        <ele>1844.88</ele>
        <time>2018-08-28T04:57:33.000Z</time>
      </trkpt>
      <trkpt lat="45.33117" lon="6.5374">
        <ele>1849.75</ele>
        <time>2018-08-28T04:57:43.000Z</time>
      </trkpt>
      <trkpt lat="45.33094" lon="6.53737">
        <ele>1855</ele>
        <time>2018-08-28T04:57:53.000Z</time>
      </trkpt>
      <trkpt lat="45.3309" lon="6.53737">
        <ele>1849.16</ele>
        <time>2018-08-28T04:58:03.000Z</time>
      </trkpt>
      <trkpt lat="45.33072" lon="6.53736">
        <ele>1852.3</ele>
        <time>2018-08-28T04:58:13.000Z</time>
      </trkpt>
      <trkpt lat="45.33064" lon="6.53738">
        <ele>1852.94</ele>
        <time>2018-08-28T04:58:23.000Z</time>
      </trkpt>
      <trkpt lat="45.33045" lon="6.53737">
        <ele>1854.06</ele>
        <time>2018-08-28T04:58:33.000Z</time>
      </trkpt>
      <trkpt lat="45.33037" lon="6.53736">
        <ele>1855.74</ele>
        <time>2018-08-28T04:58:43.000Z</time>
      </trkpt>
      <trkpt lat="45.33023" lon="6.53739">
        <ele>1859.62</ele>
        <time>2018-08-28T04:58:53.000Z</time>
      </trkpt>
      <trkpt lat="45.33007" lon="6.53742">
        <ele>1863.98</ele>
        <time>2018-08-28T04:59:03.000Z</time>
      </trkpt>
      <trkpt lat="45.32997" lon="6.53745">
        <ele>1864.25</ele>
        <time>2018-08-28T04:59:13.000Z</time>
      </trkpt>
      <trkpt lat="45.32982" lon="6.53752">
        <ele>1864.44</ele>
        <time>2018-08-28T04:59:23.000Z</time>
      </trkpt>
      <trkpt lat="45.32972" lon="6.53756">
        <ele>1862.88</ele>
        <time>2018-08-28T04:59:33.000Z</time>
      </trkpt>
      <trkpt lat="45.32957" lon="6.53762">
        <ele>1867.73</ele>
        <time>2018-08-28T04:59:43.000Z</time>
      </trkpt>
      <trkpt lat="45.32942" lon="6.53768">
        <ele>1869.87</ele>
        <time>2018-08-28T04:59:53.000Z</time>
      </trkpt>
      <trkpt lat="45.32932" lon="6.53765">
        <ele>1868.17</ele>
        <time>2018-08-28T05:00:03.000Z</time>
      </trkpt>
      <trkpt lat="45.32917" lon="6.53766">
        <ele>1865</ele>
        <time>2018-08-28T05:00:13.000Z</time>
      </trkpt>
      <trkpt lat="45.32911" lon="6.53774">
        <ele>1866</ele>
        <time>2018-08-28T05:00:23.000Z</time>
      </trkpt>
      <trkpt lat="45.329" lon="6.53782">
        <ele>1866.31</ele>
        <time>2018-08-28T05:00:33.000Z</time>
      </trkpt>
      <trkpt lat="45.32891" lon="6.53789">
        <ele>1865.71</ele>
        <time>2018-08-28T05:00:43.000Z</time>
      </trkpt>
      <trkpt lat="45.32878" lon="6.53794">
        <ele>1862.04</ele>
        <time>2018-08-28T05:00:53.000Z</time>
      </trkpt>
      <trkpt lat="45.32856" lon="6.53799">
        <ele>1872.94</ele>
        <time>2018-08-28T05:01:03.000Z</time>
      </trkpt>
      <trkpt lat="45.3285" lon="6.53795">
        <ele>1870.19</ele>
        <time>2018-08-28T05:01:13.000Z</time>
      </trkpt>
      <trkpt lat="45.32839" lon="6.53806">
        <ele>1870.67</ele>
        <time>2018-08-28T05:01:23.000Z</time>
      </trkpt>
      <trkpt lat="45.32847" lon="6.53815">
        <ele>1871.72</ele>
        <time>2018-08-28T05:01:33.000Z</time>
      </trkpt>
      <trkpt lat="45.32861" lon="6.53815">
        <ele>1871</ele>
        <time>2018-08-28T05:01:43.000Z</time>
      </trkpt>
      <trkpt lat="45.32873" lon="6.53813">
        <ele>1871.63</ele>
        <time>2018-08-28T05:01:53.000Z</time>
      </trkpt>
      <trkpt lat="45.32884" lon="6.53816">
        <ele>1872.01</ele>
        <time>2018-08-28T05:02:03.000Z</time>
      </trkpt>
      <trkpt lat="45.329" lon="6.5382">
        <ele>1872.12</ele>
        <time>2018-08-28T05:02:13.000Z</time>
      </trkpt>
      <trkpt lat="45.32914" lon="6.53822">
        <ele>1870.32</ele>
        <time>2018-08-28T05:02:23.000Z</time>
      </trkpt>
      <trkpt lat="45.32927" lon="6.53826">
        <ele>1874.18</ele>
        <time>2018-08-28T05:02:33.000Z</time>
      </trkpt>
      <trkpt lat="45.32939" lon="6.53832">
        <ele>1874.97</ele>
        <time>2018-08-28T05:02:43.000Z</time>
      </trkpt>
      <trkpt lat="45.3295" lon="6.53834">
        <ele>1879.42</ele>
        <time>2018-08-28T05:02:53.000Z</time>
      </trkpt>
      <trkpt lat="45.32963" lon="6.53836">
        <ele>1879.85</ele>
        <time>2018-08-28T05:03:03.000Z</time>
      </trkpt>
      <trkpt lat="45.32976" lon="6.53839">
        <ele>1882.43</ele>
        <time>2018-08-28T05:03:13.000Z</time>
      </trkpt>
      <trkpt lat="45.32987" lon="6.5384">
        <ele>1880.75</ele>
        <time>2018-08-28T05:03:23.000Z</time>
      </trkpt>
      <trkpt lat="45.33" lon="6.53847">
        <ele>1879.24</ele>
        <time>2018-08-28T05:03:33.000Z</time>
      </trkpt>
      <trkpt lat="45.33011" lon="6.53853">
        <ele>1875.25</ele>
        <time>2018-08-28T05:03:43.000Z</time>
      </trkpt>
      <trkpt lat="45.33025" lon="6.53851">
        <ele>1881.17</ele>
        <time>2018-08-28T05:03:53.000Z</time>
      </trkpt>
      <trkpt lat="45.33034" lon="6.5385">
        <ele>1880.18</ele>
        <time>2018-08-28T05:04:03.000Z</time>
      </trkpt>
      <trkpt lat="45.33047" lon="6.53851">
        <ele>1881.18</ele>
        <time>2018-08-28T05:04:13.000Z</time>
      </trkpt>
      <trkpt lat="45.33062" lon="6.53846">
        <ele>1884.23</ele>
        <time>2018-08-28T05:04:23.000Z</time>
      </trkpt>
      <trkpt lat="45.33068" lon="6.5386">
        <ele>1886.75</ele>
        <time>2018-08-28T05:04:33.000Z</time>
      </trkpt>
      <trkpt lat="45.33065" lon="6.53869">
        <ele>1887.07</ele>
        <time>2018-08-28T05:04:43.000Z</time>
      </trkpt>
      <trkpt lat="45.33056" lon="6.53874">
        <ele>1897.74</ele>
        <time>2018-08-28T05:04:53.000Z</time>
      </trkpt>
      <trkpt lat="45.33041" lon="6.53879">
        <ele>1901.05</ele>
        <time>2018-08-28T05:05:03.000Z</time>
      </trkpt>
      <trkpt lat="45.33028" lon="6.53881">
        <ele>1902.92</ele>
        <time>2018-08-28T05:05:13.000Z</time>
      </trkpt>
      <trkpt lat="45.33012" lon="6.53884">
        <ele>1902.21</ele>
        <time>2018-08-28T05:05:23.000Z</time>
      </trkpt>
      <trkpt lat="45.3299" lon="6.53888">
        <ele>1900.01</ele>
        <time>2018-08-28T05:05:33.000Z</time>
      </trkpt>
      <trkpt lat="45.32992" lon="6.53883">
        <ele>1902.17</ele>
        <time>2018-08-28T05:05:43.000Z</time>
      </trkpt>
      <trkpt lat="45.3298" lon="6.53883">
        <ele>1902.99</ele>
        <time>2018-08-28T05:05:53.000Z</time>
      </trkpt>
      <trkpt lat="45.32963" lon="6.53889">
        <ele>1902.99</ele>
        <time>2018-08-28T05:06:03.000Z</time>
      </trkpt>
      <trkpt lat="45.32955" lon="6.53888">
        <ele>1899.52</ele>
        <time>2018-08-28T05:06:13.000Z</time>
      </trkpt>
      <trkpt lat="45.32941" lon="6.53888">
        <ele>1900.91</ele>
        <time>2018-08-28T05:06:23.000Z</time>
      </trkpt>
      <trkpt lat="45.32924" lon="6.53893">
        <ele>1908.46</ele>
        <time>2018-08-28T05:06:33.000Z</time>
      </trkpt>
      <trkpt lat="45.3291" lon="6.539">
        <ele>1914.05</ele>
        <time>2018-08-28T05:06:43.000Z</time>
      </trkpt>
      <trkpt lat="45.32898" lon="6.53902">
        <ele>1914</ele>
        <time>2018-08-28T05:06:53.000Z</time>
      </trkpt>
      <trkpt lat="45.32885" lon="6.53908">
        <ele>1916.75</ele>
        <time>2018-08-28T05:07:03.000Z</time>
      </trkpt>
      <trkpt lat="45.32874" lon="6.53913">
        <ele>1916.81</ele>
        <time>2018-08-28T05:07:13.000Z</time>
      </trkpt>
      <trkpt lat="45.32863" lon="6.5392">
        <ele>1915.31</ele>
        <time>2018-08-28T05:07:23.000Z</time>
      </trkpt>
      <trkpt lat="45.32852" lon="6.53925">
        <ele>1917.87</ele>
        <time>2018-08-28T05:07:33.000Z</time>
      </trkpt>
      <trkpt lat="45.32842" lon="6.53937">
        <ele>1916.52</ele>
        <time>2018-08-28T05:07:43.000Z</time>
      </trkpt>
      <trkpt lat="45.32832" lon="6.5394">
        <ele>1913.64</ele>
        <time>2018-08-28T05:07:53.000Z</time>
      </trkpt>
      <trkpt lat="45.32822" lon="6.53954">
        <ele>1915.98</ele>
        <time>2018-08-28T05:08:03.000Z</time>
      </trkpt>
      <trkpt lat="45.32811" lon="6.53974">
        <ele>1920.72</ele>
        <time>2018-08-28T05:08:13.000Z</time>
      </trkpt>
      <trkpt lat="45.32805" lon="6.53977">
        <ele>1915.32</ele>
        <time>2018-08-28T05:08:23.000Z</time>
      </trkpt>
      <trkpt lat="45.32796" lon="6.53993">
        <ele>1921.93</ele>
        <time>2018-08-28T05:08:33.000Z</time>
      </trkpt>
      <trkpt lat="45.32786" lon="6.54006">
        <ele>1920.33</ele>
        <time>2018-08-28T05:08:43.000Z</time>
      </trkpt>
      <trkpt lat="45.32775" lon="6.54014">
        <ele>1925.99</ele>
        <time>2018-08-28T05:08:53.000Z</time>
      </trkpt>
      <trkpt lat="45.32762" lon="6.54023">
        <ele>1930.91</ele>
        <time>2018-08-28T05:09:03.000Z</time>
      </trkpt>
      <trkpt lat="45.32752" lon="6.54031">
        <ele>1932.8</ele>
        <time>2018-08-28T05:09:13.000Z</time>
      </trkpt>
      <trkpt lat="45.32745" lon="6.54049">
        <ele>1933.25</ele>
        <time>2018-08-28T05:09:23.000Z</time>
      </trkpt>
      <trkpt lat="45.32736" lon="6.54066">
        <ele>1933.71</ele>
        <time>2018-08-28T05:09:33.000Z</time>
      </trkpt>
      <trkpt lat="45.32721" lon="6.54074">
        <ele>1935.54</ele>
        <time>2018-08-28T05:09:43.000Z</time>
      </trkpt>
      <trkpt lat="45.32707" lon="6.54089">
        <ele>1941.01</ele>
        <time>2018-08-28T05:09:53.000Z</time>
      </trkpt>
      <trkpt lat="45.32697" lon="6.54098">
        <ele>1941.95</ele>
        <time>2018-08-28T05:10:03.000Z</time>
      </trkpt>
      <trkpt lat="45.32695" lon="6.54102">
        <ele>1936.74</ele>
        <time>2018-08-28T05:10:13.000Z</time>
      </trkpt>
      <trkpt lat="45.32696" lon="6.54111">
        <ele>1936.94</ele>
        <time>2018-08-28T05:10:23.000Z</time>
      </trkpt>
      <trkpt lat="45.32706" lon="6.54104">
        <ele>1933.07</ele>
        <time>2018-08-28T05:10:33.000Z</time>
      </trkpt>
      <trkpt lat="45.32719" lon="6.54095">
        <ele>1930.75</ele>
        <time>2018-08-28T05:10:43.000Z</time>
      </trkpt>
      <trkpt lat="45.32729" lon="6.54092">
        <ele>1925.14</ele>
        <time>2018-08-28T05:10:53.000Z</time>
      </trkpt>
      <trkpt lat="45.32734" lon="6.54088">
        <ele>1927.98</ele>
        <time>2018-08-28T05:11:03.000Z</time>
      </trkpt>
      <trkpt lat="45.32737" lon="6.54086">
        <ele>1927</ele>
        <time>2018-08-28T05:11:13.000Z</time>
      </trkpt>
      <trkpt lat="45.32745" lon="6.54078">
        <ele>1927.77</ele>
        <time>2018-08-28T05:11:23.000Z</time>
      </trkpt>
      <trkpt lat="45.32761" lon="6.54069">
        <ele>1926.27</ele>
        <time>2018-08-28T05:11:33.000Z</time>
      </trkpt>
      <trkpt lat="45.32764" lon="6.54069">
        <ele>1930.78</ele>
        <time>2018-08-28T05:11:43.000Z</time>
      </trkpt>
      <trkpt lat="45.32769" lon="6.54063">
        <ele>1932.73</ele>
        <time>2018-08-28T05:11:53.000Z</time>
      </trkpt>
      <trkpt lat="45.32779" lon="6.54059">
        <ele>1933.39</ele>
        <time>2018-08-28T05:12:03.000Z</time>
      </trkpt>
      <trkpt lat="45.3279" lon="6.54056">
        <ele>1935.03</ele>
        <time>2018-08-28T05:12:13.000Z</time>
      </trkpt>
      <trkpt lat="45.32808" lon="6.54049">
        <ele>1937.69</ele>
        <time>2018-08-28T05:12:23.000Z</time>
      </trkpt>
      <trkpt lat="45.32813" lon="6.54048">
        <ele>1939.07</ele>
        <time>2018-08-28T05:12:33.000Z</time>
      </trkpt>
      <trkpt lat="45.32829" lon="6.54044">
        <ele>1939.51</ele>
        <time>2018-08-28T05:12:43.000Z</time>
      </trkpt>
      <trkpt lat="45.3284" lon="6.54049">
        <ele>1940.08</ele>
        <time>2018-08-28T05:12:53.000Z</time>
      </trkpt>
      <trkpt lat="45.32853" lon="6.54056">
        <ele>1938.83</ele>
        <time>2018-08-28T05:13:03.000Z</time>
      </trkpt>
      <trkpt lat="45.32856" lon="6.54062">
        <ele>1938.97</ele>
        <time>2018-08-28T05:13:13.000Z</time>
      </trkpt>
      <trkpt lat="45.32861" lon="6.54064">
        <ele>1943.93</ele>
        <time>2018-08-28T05:13:23.000Z</time>
      </trkpt>
      <trkpt lat="45.32865" lon="6.54073">
        <ele>1945.73</ele>
        <time>2018-08-28T05:13:33.000Z</time>
      </trkpt>
      <trkpt lat="45.32877" lon="6.54082">
        <ele>1947.8</ele>
        <time>2018-08-28T05:13:43.000Z</time>
      </trkpt>
      <trkpt lat="45.32889" lon="6.54088">
        <ele>1948.18</ele>
        <time>2018-08-28T05:13:53.000Z</time>
      </trkpt>
      <trkpt lat="45.32897" lon="6.54091">
        <ele>1946.92</ele>
        <time>2018-08-28T05:14:03.000Z</time>
      </trkpt>
      <trkpt lat="45.32906" lon="6.54091">
        <ele>1949.98</ele>
        <time>2018-08-28T05:14:13.000Z</time>
      </trkpt>
      <trkpt lat="45.3292" lon="6.54087">
        <ele>1952.07</ele>
        <time>2018-08-28T05:14:23.000Z</time>
      </trkpt>
      <trkpt lat="45.32932" lon="6.54081">
        <ele>1954.96</ele>
        <time>2018-08-28T05:14:33.000Z</time>
      </trkpt>
      <trkpt lat="45.32946" lon="6.54076">
        <ele>1954</ele>
        <time>2018-08-28T05:14:43.000Z</time>
      </trkpt>
      <trkpt lat="45.32954" lon="6.54076">
        <ele>1951.25</ele>
        <time>2018-08-28T05:14:53.000Z</time>
      </trkpt>
      <trkpt lat="45.32969" lon="6.54073">
        <ele>1956.93</ele>
        <time>2018-08-28T05:15:03.000Z</time>
      </trkpt>
      <trkpt lat="45.3298" lon="6.54074">
        <ele>1960.94</ele>
        <time>2018-08-28T05:15:13.000Z</time>
      </trkpt>
      <trkpt lat="45.32988" lon="6.54079">
        <ele>1962.93</ele>
        <time>2018-08-28T05:15:23.000Z</time>
      </trkpt>
      <trkpt lat="45.32998" lon="6.54088">
        <ele>1961</ele>
        <time>2018-08-28T05:15:33.000Z</time>
      </trkpt>
      <trkpt lat="45.33003" lon="6.54092">
        <ele>1957.5</ele>
        <time>2018-08-28T05:15:43.000Z</time>
      </trkpt>
      <trkpt lat="45.3302" lon="6.54097">
        <ele>1956.41</ele>
        <time>2018-08-28T05:15:53.000Z</time>
      </trkpt>
      <trkpt lat="45.33031" lon="6.54096">
        <ele>1960.69</ele>
        <time>2018-08-28T05:16:03.000Z</time>
      </trkpt>
      <trkpt lat="45.33049" lon="6.54096">
        <ele>1965.05</ele>
        <time>2018-08-28T05:16:13.000Z</time>
      </trkpt>
      <trkpt lat="45.33056" lon="6.54098">
        <ele>1962</ele>
        <time>2018-08-28T05:16:23.000Z</time>
      </trkpt>
      <trkpt lat="45.33069" lon="6.54092">
        <ele>1963</ele>
        <time>2018-08-28T05:16:33.000Z</time>
      </trkpt>
      <trkpt lat="45.33083" lon="6.54088">
        <ele>1961.19</ele>
        <time>2018-08-28T05:16:43.000Z</time>
      </trkpt>
      <trkpt lat="45.33096" lon="6.54075">
        <ele>1962.67</ele>
        <time>2018-08-28T05:16:53.000Z</time>
      </trkpt>
      <trkpt lat="45.33111" lon="6.54071">
        <ele>1966.96</ele>
        <time>2018-08-28T05:17:03.000Z</time>
      </trkpt>
      <trkpt lat="45.33124" lon="6.54065">
        <ele>1971.14</ele>
        <time>2018-08-28T05:17:13.000Z</time>
      </trkpt>
      <trkpt lat="45.33139" lon="6.54065">
        <ele>1971.02</ele>
        <time>2018-08-28T05:17:23.000Z</time>
      </trkpt>
      <trkpt lat="45.33148" lon="6.54065">
        <ele>1971.2</ele>
        <time>2018-08-28T05:17:33.000Z</time>
      </trkpt>
      <trkpt lat="45.33161" lon="6.54074">
        <ele>1976</ele>
        <time>2018-08-28T05:17:43.000Z</time>
      </trkpt>
      <trkpt lat="45.33177" lon="6.54083">
        <ele>1974.11</ele>
        <time>2018-08-28T05:17:53.000Z</time>
      </trkpt>
      <trkpt lat="45.33187" lon="6.54085">
        <ele>1969.74</ele>
        <time>2018-08-28T05:18:03.000Z</time>
      </trkpt>
      <trkpt lat="45.33199" lon="6.54087">
        <ele>1971.05</ele>
        <time>2018-08-28T05:18:13.000Z</time>
      </trkpt>
      <trkpt lat="45.33205" lon="6.54083">
        <ele>1970.75</ele>
        <time>2018-08-28T05:18:23.000Z</time>
      </trkpt>
      <trkpt lat="45.33222" lon="6.54084">
        <ele>1976.23</ele>
        <time>2018-08-28T05:18:33.000Z</time>
      </trkpt>
      <trkpt lat="45.33231" lon="6.54089">
        <ele>1972.32</ele>
        <time>2018-08-28T05:18:43.000Z</time>
      </trkpt>
      <trkpt lat="45.33248" lon="6.54093">
        <ele>1974.7</ele>
        <time>2018-08-28T05:18:53.000Z</time>
      </trkpt>
      <trkpt lat="45.33261" lon="6.54094">
        <ele>1973.06</ele>
        <time>2018-08-28T05:19:03.000Z</time>
      </trkpt>
      <trkpt lat="45.33275" lon="6.54099">
        <ele>1969</ele>
        <time>2018-08-28T05:19:13.000Z</time>
      </trkpt>
      <trkpt lat="45.3328" lon="6.54106">
        <ele>1968.02</ele>
        <time>2018-08-28T05:19:23.000Z</time>
      </trkpt>
      <trkpt lat="45.33291" lon="6.54112">
        <ele>1970.75</ele>
        <time>2018-08-28T05:19:33.000Z</time>
      </trkpt>
      <trkpt lat="45.33304" lon="6.54119">
        <ele>1972.19</ele>
        <time>2018-08-28T05:19:43.000Z</time>
      </trkpt>
      <trkpt lat="45.3332" lon="6.54123">
        <ele>1975.98</ele>
        <time>2018-08-28T05:19:53.000Z</time>
      </trkpt>
      <trkpt lat="45.3333" lon="6.54125">
        <ele>1982.34</ele>
        <time>2018-08-28T05:20:03.000Z</time>
      </trkpt>
      <trkpt lat="45.33345" lon="6.5412">
        <ele>1983.44</ele>
        <time>2018-08-28T05:20:13.000Z</time>
      </trkpt>
      <trkpt lat="45.33353" lon="6.54128">
        <ele>1977.07</ele>
        <time>2018-08-28T05:20:23.000Z</time>
      </trkpt>
      <trkpt lat="45.33366" lon="6.54134">
        <ele>1976</ele>
        <time>2018-08-28T05:20:33.000Z</time>
      </trkpt>
      <trkpt lat="45.33375" lon="6.54135">
        <ele>1975.19</ele>
        <time>2018-08-28T05:20:43.000Z</time>
      </trkpt>
      <trkpt lat="45.33391" lon="6.54127">
        <ele>1975</ele>
        <time>2018-08-28T05:20:53.000Z</time>
      </trkpt>
      <trkpt lat="45.33407" lon="6.54127">
        <ele>1973.25</ele>
        <time>2018-08-28T05:21:03.000Z</time>
      </trkpt>
      <trkpt lat="45.3342" lon="6.54123">
        <ele>1975.01</ele>
        <time>2018-08-28T05:21:13.000Z</time>
      </trkpt>
      <trkpt lat="45.33429" lon="6.54127">
        <ele>1971.08</ele>
        <time>2018-08-28T05:21:23.000Z</time>
      </trkpt>
      <trkpt lat="45.33443" lon="6.54132">
        <ele>1974.95</ele>
        <time>2018-08-28T05:21:33.000Z</time>
      </trkpt>
      <trkpt lat="45.33455" lon="6.54141">
        <ele>1969.51</ele>
        <time>2018-08-28T05:21:43.000Z</time>
      </trkpt>
      <trkpt lat="45.3347" lon="6.54137">
        <ele>1972</ele>
        <time>2018-08-28T05:21:53.000Z</time>
      </trkpt>
      <trkpt lat="45.33483" lon="6.54133">
        <ele>1971</ele>
        <time>2018-08-28T05:22:03.000Z</time>
      </trkpt>
      <trkpt lat="45.335" lon="6.54124">
        <ele>1977.86</ele>
        <time>2018-08-28T05:22:13.000Z</time>
      </trkpt>
      <trkpt lat="45.33506" lon="6.54132">
        <ele>1973.19</ele>
        <time>2018-08-28T05:22:23.000Z</time>
      </trkpt>
      <trkpt lat="45.33526" lon="6.54133">
        <ele>1979.41</ele>
        <time>2018-08-28T05:22:33.000Z</time>
      </trkpt>
      <trkpt lat="45.33542" lon="6.54124">
        <ele>1983.92</ele>
        <time>2018-08-28T05:22:43.000Z</time>
      </trkpt>
      <trkpt lat="45.33559" lon="6.54123">
        <ele>1987.07</ele>
        <time>2018-08-28T05:22:53.000Z</time>
      </trkpt>
      <trkpt lat="45.33577" lon="6.5412">
        <ele>1986.81</ele>
        <time>2018-08-28T05:23:03.000Z</time>
      </trkpt>
      <trkpt lat="45.33586" lon="6.54124">
        <ele>1988.18</ele>
        <time>2018-08-28T05:23:13.000Z</time>
      </trkpt>
      <trkpt lat="45.33598" lon="6.54127">
        <ele>1986.94</ele>
        <time>2018-08-28T05:23:23.000Z</time>
      </trkpt>
      <trkpt lat="45.33609" lon="6.54123">
        <ele>1986.92</ele>
        <time>2018-08-28T05:23:33.000Z</time>
      </trkpt>
      <trkpt lat="45.3362" lon="6.54127">
        <ele>1985.09</ele>
        <time>2018-08-28T05:23:43.000Z</time>
      </trkpt>
      <trkpt lat="45.33627" lon="6.54133">
        <ele>1978.23</ele>
        <time>2018-08-28T05:23:53.000Z</time>
      </trkpt>
      <trkpt lat="45.33638" lon="6.54117">
        <ele>1978.06</ele>
        <time>2018-08-28T05:24:03.000Z</time>
      </trkpt>
      <trkpt lat="45.3365" lon="6.54107">
        <ele>1986.69</ele>
        <time>2018-08-28T05:24:13.000Z</time>
      </trkpt>
      <trkpt lat="45.33659" lon="6.54101">
        <ele>1985.06</ele>
        <time>2018-08-28T05:24:23.000Z</time>
      </trkpt>
      <trkpt lat="45.33673" lon="6.54093">
        <ele>1985.93</ele>
        <time>2018-08-28T05:24:33.000Z</time>
      </trkpt>
      <trkpt lat="45.33689" lon="6.54087">
        <ele>1987.88</ele>
        <time>2018-08-28T05:24:43.000Z</time>
      </trkpt>
      <trkpt lat="45.33702" lon="6.54082">
        <ele>1985.53</ele>
        <time>2018-08-28T05:24:53.000Z</time>
      </trkpt>
      <trkpt lat="45.33714" lon="6.54077">
        <ele>1988</ele>
        <time>2018-08-28T05:25:03.000Z</time>
      </trkpt>
      <trkpt lat="45.33727" lon="6.54078">
        <ele>1988.75</ele>
        <time>2018-08-28T05:25:13.000Z</time>
      </trkpt>
      <trkpt lat="45.33738" lon="6.5407">
        <ele>1991.74</ele>
        <time>2018-08-28T05:25:23.000Z</time>
      </trkpt>
      <trkpt lat="45.33752" lon="6.54056">
        <ele>1995.74</ele>
        <time>2018-08-28T05:25:33.000Z</time>
      </trkpt>
      <trkpt lat="45.33765" lon="6.54054">
        <ele>1996.75</ele>
        <time>2018-08-28T05:25:43.000Z</time>
      </trkpt>
      <trkpt lat="45.33778" lon="6.54056">
        <ele>1995.8</ele>
        <time>2018-08-28T05:25:53.000Z</time>
      </trkpt>
      <trkpt lat="45.33793" lon="6.54056">
        <ele>1988.92</ele>
        <time>2018-08-28T05:26:03.000Z</time>
      </trkpt>
      <trkpt lat="45.33805" lon="6.54053">
        <ele>1988.73</ele>
        <time>2018-08-28T05:26:13.000Z</time>
      </trkpt>
      <trkpt lat="45.33819" lon="6.54047">
        <ele>1989.93</ele>
        <time>2018-08-28T05:26:23.000Z</time>
      </trkpt>
      <trkpt lat="45.33833" lon="6.5404">
        <ele>1993.25</ele>
        <time>2018-08-28T05:26:33.000Z</time>
      </trkpt>
      <trkpt lat="45.3384" lon="6.54028">
        <ele>1990.68</ele>
        <time>2018-08-28T05:26:43.000Z</time>
      </trkpt>
      <trkpt lat="45.33852" lon="6.54026">
        <ele>1987.45</ele>
        <time>2018-08-28T05:26:53.000Z</time>
      </trkpt>
      <trkpt lat="45.33864" lon="6.54011">
        <ele>1987.93</ele>
        <time>2018-08-28T05:27:03.000Z</time>
      </trkpt>
      <trkpt lat="45.33873" lon="6.53997">
        <ele>1985.75</ele>
        <time>2018-08-28T05:27:13.000Z</time>
      </trkpt>
      <trkpt lat="45.33884" lon="6.53985">
        <ele>1985.01</ele>
        <time>2018-08-28T05:27:23.000Z</time>
      </trkpt>
      <trkpt lat="45.33894" lon="6.53976">
        <ele>1989.77</ele>
        <time>2018-08-28T05:27:33.000Z</time>
      </trkpt>
      <trkpt lat="45.33908" lon="6.53961">
        <ele>1994.48</ele>
        <time>2018-08-28T05:27:43.000Z</time>
      </trkpt>
      <trkpt lat="45.33919" lon="6.53956">
        <ele>1997.07</ele>
        <time>2018-08-28T05:27:53.000Z</time>
      </trkpt>
      <trkpt lat="45.33929" lon="6.53956">
        <ele>1999.94</ele>
        <time>2018-08-28T05:28:03.000Z</time>
      </trkpt>
      <trkpt lat="45.33946" lon="6.53957">
        <ele>2000.32</ele>
        <time>2018-08-28T05:28:13.000Z</time>
      </trkpt>
      <trkpt lat="45.33961" lon="6.53949">
        <ele>2003.98</ele>
        <time>2018-08-28T05:28:23.000Z</time>
      </trkpt>
      <trkpt lat="45.33972" lon="6.53948">
        <ele>2004.02</ele>
        <time>2018-08-28T05:28:33.000Z</time>
      </trkpt>
      <trkpt lat="45.33984" lon="6.53949">
        <ele>2001.05</ele>
        <time>2018-08-28T05:28:43.000Z</time>
      </trkpt>
      <trkpt lat="45.33994" lon="6.53938">
        <ele>2003.99</ele>
        <time>2018-08-28T05:28:53.000Z</time>
      </trkpt>
      <trkpt lat="45.34003" lon="6.53929">
        <ele>1999.07</ele>
        <time>2018-08-28T05:29:03.000Z</time>
      </trkpt>
      <trkpt lat="45.34009" lon="6.53916">
        <ele>1997.99</ele>
        <time>2018-08-28T05:29:13.000Z</time>
      </trkpt>
      <trkpt lat="45.34022" lon="6.53905">
        <ele>1996.09</ele>
        <time>2018-08-28T05:29:23.000Z</time>
      </trkpt>
      <trkpt lat="45.34035" lon="6.53903">
        <ele>1991.43</ele>
        <time>2018-08-28T05:29:33.000Z</time>
      </trkpt>
      <trkpt lat="45.34045" lon="6.53901">
        <ele>1992.03</ele>
        <time>2018-08-28T05:29:43.000Z</time>
      </trkpt>
      <trkpt lat="45.34055" lon="6.53894">
        <ele>1989.77</ele>
        <time>2018-08-28T05:29:53.000Z</time>
      </trkpt>
      <trkpt lat="45.34065" lon="6.53877">
        <ele>1990.99</ele>
        <time>2018-08-28T05:30:03.000Z</time>
      </trkpt>
      <trkpt lat="45.34078" lon="6.53873">
        <ele>1989.06</ele>
        <time>2018-08-28T05:30:13.000Z</time>
      </trkpt>
      <trkpt lat="45.34087" lon="6.53851">
        <ele>1993.85</ele>
        <time>2018-08-28T05:30:23.000Z</time>
      </trkpt>
      <trkpt lat="45.34092" lon="6.53827">
        <ele>2002.99</ele>
        <time>2018-08-28T05:30:33.000Z</time>
      </trkpt>
      <trkpt lat="45.34102" lon="6.53812">
        <ele>1999.02</ele>
        <time>2018-08-28T05:30:43.000Z</time>
      </trkpt>
      <trkpt lat="45.34108" lon="6.53804">
        <ele>1995.13</ele>
        <time>2018-08-28T05:30:53.000Z</time>
      </trkpt>
      <trkpt lat="45.34109" lon="6.53805">
        <ele>1994</ele>
        <time>2018-08-28T05:31:05.000Z</time>
      </trkpt>
      <trkpt lat="45.34108" lon="6.53781">
        <ele>2000.97</ele>
        <time>2018-08-28T05:31:15.000Z</time>
      </trkpt>
      <trkpt lat="45.34121" lon="6.53771">
        <ele>2003.75</ele>
        <time>2018-08-28T05:31:25.000Z</time>
      </trkpt>
      <trkpt lat="45.34135" lon="6.53764">
        <ele>2006.01</ele>
        <time>2018-08-28T05:31:35.000Z</time>
      </trkpt>
      <trkpt lat="45.34141" lon="6.53752">
        <ele>2001.89</ele>
        <time>2018-08-28T05:31:45.000Z</time>
      </trkpt>
      <trkpt lat="45.34158" lon="6.53742">
        <ele>2006.05</ele>
        <time>2018-08-28T05:31:55.000Z</time>
      </trkpt>
      <trkpt lat="45.34164" lon="6.53735">
        <ele>2002.02</ele>
        <time>2018-08-28T05:32:05.000Z</time>
      </trkpt>
      <trkpt lat="45.34164" lon="6.53729">
        <ele>2003</ele>
        <time>2018-08-28T05:32:15.000Z</time>
      </trkpt>
      <trkpt lat="45.34168" lon="6.53725">
        <ele>2004.75</ele>
        <time>2018-08-28T05:32:36.000Z</time>
      </trkpt>
      <trkpt lat="45.3418" lon="6.53725">
        <ele>2004.76</ele>
        <time>2018-08-28T05:32:46.000Z</time>
      </trkpt>
      <trkpt lat="45.34191" lon="6.53721">
        <ele>2004.06</ele>
        <time>2018-08-28T05:32:56.000Z</time>
      </trkpt>
      <trkpt lat="45.34207" lon="6.53717">
        <ele>2004</ele>
        <time>2018-08-28T05:33:06.000Z</time>
      </trkpt>
      <trkpt lat="45.34223" lon="6.53706">
        <ele>2005.95</ele>
        <time>2018-08-28T05:33:16.000Z</time>
      </trkpt>
      <trkpt lat="45.34236" lon="6.53709">
        <ele>2002.76</ele>
        <time>2018-08-28T05:33:26.000Z</time>
      </trkpt>
      <trkpt lat="45.34247" lon="6.53704">
        <ele>2001.73</ele>
        <time>2018-08-28T05:33:36.000Z</time>
      </trkpt>
      <trkpt lat="45.3426" lon="6.53695">
        <ele>2003.83</ele>
        <time>2018-08-28T05:33:46.000Z</time>
      </trkpt>
      <trkpt lat="45.34275" lon="6.53689">
        <ele>2006.06</ele>
        <time>2018-08-28T05:33:56.000Z</time>
      </trkpt>
      <trkpt lat="45.34289" lon="6.5368">
        <ele>2008.79</ele>
        <time>2018-08-28T05:34:06.000Z</time>
      </trkpt>
      <trkpt lat="45.34299" lon="6.5368">
        <ele>2007.31</ele>
        <time>2018-08-28T05:34:16.000Z</time>
      </trkpt>
      <trkpt lat="45.3431" lon="6.5368">
        <ele>2001.27</ele>
        <time>2018-08-28T05:34:26.000Z</time>
      </trkpt>
      <trkpt lat="45.34324" lon="6.53673">
        <ele>2000.3</ele>
        <time>2018-08-28T05:34:36.000Z</time>
      </trkpt>
      <trkpt lat="45.34334" lon="6.53667">
        <ele>1996.75</ele>
        <time>2018-08-28T05:34:46.000Z</time>
      </trkpt>
      <trkpt lat="45.34342" lon="6.53662">
        <ele>1991.29</ele>
        <time>2018-08-28T05:34:56.000Z</time>
      </trkpt>
      <trkpt lat="45.3435" lon="6.53651">
        <ele>1990.97</ele>
        <time>2018-08-28T05:35:06.000Z</time>
      </trkpt>
      <trkpt lat="45.34351" lon="6.53649">
        <ele>1994</ele>
        <time>2018-08-28T05:35:16.000Z</time>
      </trkpt>
      <trkpt lat="45.34357" lon="6.53648">
        <ele>1994</ele>
        <time>2018-08-28T05:35:29.000Z</time>
      </trkpt>
      <trkpt lat="45.34357" lon="6.53647">
        <ele>1996.95</ele>
        <time>2018-08-28T05:35:39.000Z</time>
      </trkpt>
      <trkpt lat="45.34353" lon="6.53647">
        <ele>1991.76</ele>
        <time>2018-08-28T05:35:49.000Z</time>
      </trkpt>
      <trkpt lat="45.34367" lon="6.53646">
        <ele>1990.23</ele>
        <time>2018-08-28T05:35:59.000Z</time>
      </trkpt>
      <trkpt lat="45.34381" lon="6.53644">
        <ele>1992.19</ele>
        <time>2018-08-28T05:36:09.000Z</time>
      </trkpt>
      <trkpt lat="45.34394" lon="6.53646">
        <ele>1991.77</ele>
        <time>2018-08-28T05:36:19.000Z</time>
      </trkpt>
      <trkpt lat="45.34404" lon="6.53649">
        <ele>1991.24</ele>
        <time>2018-08-28T05:36:29.000Z</time>
      </trkpt>
      <trkpt lat="45.34418" lon="6.53648">
        <ele>1993.23</ele>
        <time>2018-08-28T05:36:39.000Z</time>
      </trkpt>
      <trkpt lat="45.34425" lon="6.5365">
        <ele>1990.5</ele>
        <time>2018-08-28T05:36:49.000Z</time>
      </trkpt>
      <trkpt lat="45.34435" lon="6.5365">
        <ele>1985.96</ele>
        <time>2018-08-28T05:36:59.000Z</time>
      </trkpt>
      <trkpt lat="45.34451" lon="6.53641">
        <ele>1985.27</ele>
        <time>2018-08-28T05:37:09.000Z</time>
      </trkpt>
      <trkpt lat="45.34461" lon="6.53628">
        <ele>1987.93</ele>
        <time>2018-08-28T05:37:19.000Z</time>
      </trkpt>
      <trkpt lat="45.34473" lon="6.53622">
        <ele>1987.05</ele>
        <time>2018-08-28T05:37:29.000Z</time>
      </trkpt>
      <trkpt lat="45.34479" lon="6.53625">
        <ele>1986</ele>
        <time>2018-08-28T05:37:39.000Z</time>
      </trkpt>
      <trkpt lat="45.34489" lon="6.53637">
        <ele>1988</ele>
        <time>2018-08-28T05:37:49.000Z</time>
      </trkpt>
      <trkpt lat="45.34499" lon="6.53646">
        <ele>1987.8</ele>
        <time>2018-08-28T05:37:59.000Z</time>
      </trkpt>
      <trkpt lat="45.34518" lon="6.53647">
        <ele>1986</ele>
        <time>2018-08-28T05:38:09.000Z</time>
      </trkpt>
      <trkpt lat="45.34529" lon="6.5365">
        <ele>1982.07</ele>
        <time>2018-08-28T05:38:19.000Z</time>
      </trkpt>
      <trkpt lat="45.34535" lon="6.5366">
        <ele>1985.29</ele>
        <time>2018-08-28T05:38:29.000Z</time>
      </trkpt>
      <trkpt lat="45.3455" lon="6.53659">
        <ele>1984.05</ele>
        <time>2018-08-28T05:38:39.000Z</time>
      </trkpt>
      <trkpt lat="45.34566" lon="6.53655">
        <ele>1983.04</ele>
        <time>2018-08-28T05:38:49.000Z</time>
      </trkpt>
      <trkpt lat="45.34576" lon="6.53654">
        <ele>1981.98</ele>
        <time>2018-08-28T05:38:59.000Z</time>
      </trkpt>
      <trkpt lat="45.34578" lon="6.53651">
        <ele>1981.17</ele>
        <time>2018-08-28T05:39:09.000Z</time>
      </trkpt>
      <trkpt lat="45.34589" lon="6.53661">
        <ele>1984.28</ele>
        <time>2018-08-28T05:39:19.000Z</time>
      </trkpt>
      <trkpt lat="45.34595" lon="6.53646">
        <ele>1979.03</ele>
        <time>2018-08-28T05:39:29.000Z</time>
      </trkpt>
      <trkpt lat="45.34606" lon="6.53646">
        <ele>1977.8</ele>
        <time>2018-08-28T05:39:39.000Z</time>
      </trkpt>
      <trkpt lat="45.3462" lon="6.53638">
        <ele>1978.06</ele>
        <time>2018-08-28T05:39:49.000Z</time>
      </trkpt>
      <trkpt lat="45.34633" lon="6.5363">
        <ele>1980.04</ele>
        <time>2018-08-28T05:39:59.000Z</time>
      </trkpt>
      <trkpt lat="45.34645" lon="6.53639">
        <ele>1974.99</ele>
        <time>2018-08-28T05:40:09.000Z</time>
      </trkpt>
      <trkpt lat="45.34663" lon="6.53637">
        <ele>1974.99</ele>
        <time>2018-08-28T05:40:19.000Z</time>
      </trkpt>
      <trkpt lat="45.34673" lon="6.53637">
        <ele>1976.22</ele>
        <time>2018-08-28T05:40:29.000Z</time>
      </trkpt>
      <trkpt lat="45.34682" lon="6.5363">
        <ele>1976.04</ele>
        <time>2018-08-28T05:40:39.000Z</time>
      </trkpt>
      <trkpt lat="45.34696" lon="6.53621">
        <ele>1976.12</ele>
        <time>2018-08-28T05:40:49.000Z</time>
      </trkpt>
      <trkpt lat="45.34706" lon="6.53622">
        <ele>1974.19</ele>
        <time>2018-08-28T05:40:59.000Z</time>
      </trkpt>
      <trkpt lat="45.34711" lon="6.5362">
        <ele>1974.48</ele>
        <time>2018-08-28T05:41:09.000Z</time>
      </trkpt>
      <trkpt lat="45.34726" lon="6.5362">
        <ele>1977.23</ele>
        <time>2018-08-28T05:41:19.000Z</time>
      </trkpt>
      <trkpt lat="45.34736" lon="6.53613">
        <ele>1973.19</ele>
        <time>2018-08-28T05:41:29.000Z</time>
      </trkpt>
      <trkpt lat="45.34753" lon="6.53613">
        <ele>1977.85</ele>
        <time>2018-08-28T05:41:39.000Z</time>
      </trkpt>
      <trkpt lat="45.34762" lon="6.53609">
        <ele>1979</ele>
        <time>2018-08-28T05:41:49.000Z</time>
      </trkpt>
      <trkpt lat="45.34767" lon="6.5361">
        <ele>1971.34</ele>
        <time>2018-08-28T05:41:59.000Z</time>
      </trkpt>
      <trkpt lat="45.34775" lon="6.53611">
        <ele>1972.73</ele>
        <time>2018-08-28T05:42:09.000Z</time>
      </trkpt>
      <trkpt lat="45.34787" lon="6.53612">
        <ele>1968.95</ele>
        <time>2018-08-28T05:42:19.000Z</time>
      </trkpt>
      <trkpt lat="45.34798" lon="6.53604">
        <ele>1965.82</ele>
        <time>2018-08-28T05:42:29.000Z</time>
      </trkpt>
      <trkpt lat="45.34812" lon="6.536">
        <ele>1965.68</ele>
        <time>2018-08-28T05:42:39.000Z</time>
      </trkpt>
      <trkpt lat="45.34826" lon="6.53593">
        <ele>1965.74</ele>
        <time>2018-08-28T05:42:49.000Z</time>
      </trkpt>
      <trkpt lat="45.34837" lon="6.53589">
        <ele>1965.82</ele>
        <time>2018-08-28T05:42:59.000Z</time>
      </trkpt>
      <trkpt lat="45.34852" lon="6.53587">
        <ele>1964.7</ele>
        <time>2018-08-28T05:43:09.000Z</time>
      </trkpt>
      <trkpt lat="45.34865" lon="6.53587">
        <ele>1972.48</ele>
        <time>2018-08-28T05:43:19.000Z</time>
      </trkpt>
      <trkpt lat="45.34873" lon="6.53596">
        <ele>1964.78</ele>
        <time>2018-08-28T05:43:29.000Z</time>
      </trkpt>
      <trkpt lat="45.34883" lon="6.53601">
        <ele>1962.3</ele>
        <time>2018-08-28T05:43:39.000Z</time>
      </trkpt>
      <trkpt lat="45.34895" lon="6.53603">
        <ele>1961.2</ele>
        <time>2018-08-28T05:43:49.000Z</time>
      </trkpt>
      <trkpt lat="45.34907" lon="6.53622">
        <ele>1958.99</ele>
        <time>2018-08-28T05:43:59.000Z</time>
      </trkpt>
      <trkpt lat="45.34906" lon="6.53636">
        <ele>1960.88</ele>
        <time>2018-08-28T05:44:09.000Z</time>
      </trkpt>
      <trkpt lat="45.34911" lon="6.53651">
        <ele>1962.82</ele>
        <time>2018-08-28T05:44:19.000Z</time>
      </trkpt>
      <trkpt lat="45.34911" lon="6.53668">
        <ele>1964.15</ele>
        <time>2018-08-28T05:44:29.000Z</time>
      </trkpt>
      <trkpt lat="45.34922" lon="6.53681">
        <ele>1965.94</ele>
        <time>2018-08-28T05:44:39.000Z</time>
      </trkpt>
      <trkpt lat="45.34941" lon="6.53687">
        <ele>1968.69</ele>
        <time>2018-08-28T05:44:49.000Z</time>
      </trkpt>
      <trkpt lat="45.34951" lon="6.5369">
        <ele>1958.97</ele>
        <time>2018-08-28T05:44:59.000Z</time>
      </trkpt>
      <trkpt lat="45.34961" lon="6.53682">
        <ele>1959.14</ele>
        <time>2018-08-28T05:45:09.000Z</time>
      </trkpt>
      <trkpt lat="45.34977" lon="6.5368">
        <ele>1954.31</ele>
        <time>2018-08-28T05:45:19.000Z</time>
      </trkpt>
      <trkpt lat="45.34993" lon="6.53677">
        <ele>1956.25</ele>
        <time>2018-08-28T05:45:29.000Z</time>
      </trkpt>
      <trkpt lat="45.35001" lon="6.53673">
        <ele>1952.94</ele>
        <time>2018-08-28T05:45:39.000Z</time>
      </trkpt>
      <trkpt lat="45.35008" lon="6.53684">
        <ele>1952.01</ele>
        <time>2018-08-28T05:45:49.000Z</time>
      </trkpt>
      <trkpt lat="45.35013" lon="6.53698">
        <ele>1955.06</ele>
        <time>2018-08-28T05:45:59.000Z</time>
      </trkpt>
      <trkpt lat="45.35022" lon="6.53701">
        <ele>1955.05</ele>
        <time>2018-08-28T05:46:09.000Z</time>
      </trkpt>
      <trkpt lat="45.35014" lon="6.53702">
        <ele>1955.94</ele>
        <time>2018-08-28T05:46:19.000Z</time>
      </trkpt>
      <trkpt lat="45.35027" lon="6.53715">
        <ele>1954.44</ele>
        <time>2018-08-28T05:46:29.000Z</time>
      </trkpt>
      <trkpt lat="45.35031" lon="6.53723">
        <ele>1959.76</ele>
        <time>2018-08-28T05:46:39.000Z</time>
      </trkpt>
      <trkpt lat="45.35038" lon="6.53735">
        <ele>1961</ele>
        <time>2018-08-28T05:46:49.000Z</time>
      </trkpt>
      <trkpt lat="45.35048" lon="6.53749">
        <ele>1960.75</ele>
        <time>2018-08-28T05:46:59.000Z</time>
      </trkpt>
      <trkpt lat="45.35059" lon="6.53746">
        <ele>1960.93</ele>
        <time>2018-08-28T05:47:09.000Z</time>
      </trkpt>
      <trkpt lat="45.35053" lon="6.53756">
        <ele>1958.14</ele>
        <time>2018-08-28T05:47:19.000Z</time>
      </trkpt>
      <trkpt lat="45.35052" lon="6.53748">
        <ele>1958.95</ele>
        <time>2018-08-28T05:47:29.000Z</time>
      </trkpt>
      <trkpt lat="45.35051" lon="6.5375">
        <ele>1958.24</ele>
        <time>2018-08-28T05:47:39.000Z</time>
      </trkpt>
      <trkpt lat="45.35052" lon="6.53751">
        <ele>1959</ele>
        <time>2018-08-28T05:47:50.000Z</time>
      </trkpt>
      <trkpt lat="45.35073" lon="6.53756">
        <ele>1958.17</ele>
        <time>2018-08-28T05:48:00.000Z</time>
      </trkpt>
      <trkpt lat="45.351" lon="6.5377">
        <ele>1962.8</ele>
        <time>2018-08-28T05:48:10.000Z</time>
      </trkpt>
      <trkpt lat="45.35125" lon="6.53779">
        <ele>1959.25</ele>
        <time>2018-08-28T05:48:20.000Z</time>
      </trkpt>
      <trkpt lat="45.35129" lon="6.53769">
        <ele>1959.14</ele>
        <time>2018-08-28T05:48:30.000Z</time>
      </trkpt>
      <trkpt lat="45.3514" lon="6.53762">
        <ele>1959.81</ele>
        <time>2018-08-28T05:48:40.000Z</time>
      </trkpt>
      <trkpt lat="45.35152" lon="6.53757">
        <ele>1961.23</ele>
        <time>2018-08-28T05:48:50.000Z</time>
      </trkpt>
      <trkpt lat="45.35153" lon="6.53755">
        <ele>1963</ele>
        <time>2018-08-28T05:49:00.000Z</time>
      </trkpt>
      <trkpt lat="45.35154" lon="6.53757">
        <ele>1962</ele>
        <time>2018-08-28T05:49:27.000Z</time>
      </trkpt>
      <trkpt lat="45.35157" lon="6.53763">
        <ele>1961.25</ele>
        <time>2018-08-28T05:49:41.000Z</time>
      </trkpt>
      <trkpt lat="45.35195" lon="6.5377">
        <ele>1969.06</ele>
        <time>2018-08-28T05:49:51.000Z</time>
      </trkpt>
      <trkpt lat="45.35215" lon="6.53762">
        <ele>1967.75</ele>
        <time>2018-08-28T05:50:01.000Z</time>
      </trkpt>
      <trkpt lat="45.3523" lon="6.5377">
        <ele>1962.9</ele>
        <time>2018-08-28T05:50:11.000Z</time>
      </trkpt>
      <trkpt lat="45.35242" lon="6.53771">
        <ele>1956.96</ele>
        <time>2018-08-28T05:50:21.000Z</time>
      </trkpt>
      <trkpt lat="45.35257" lon="6.53768">
        <ele>1956.28</ele>
        <time>2018-08-28T05:50:31.000Z</time>
      </trkpt>
      <trkpt lat="45.35265" lon="6.53782">
        <ele>1956.43</ele>
        <time>2018-08-28T05:50:41.000Z</time>
      </trkpt>
      <trkpt lat="45.35272" lon="6.53791">
        <ele>1956.75</ele>
        <time>2018-08-28T05:50:51.000Z</time>
      </trkpt>
      <trkpt lat="45.35281" lon="6.53794">
        <ele>1965.68</ele>
        <time>2018-08-28T05:51:01.000Z</time>
      </trkpt>
      <trkpt lat="45.3529" lon="6.53793">
        <ele>1963.25</ele>
        <time>2018-08-28T05:51:11.000Z</time>
      </trkpt>
      <trkpt lat="45.3531" lon="6.53793">
        <ele>1960.06</ele>
        <time>2018-08-28T05:51:21.000Z</time>
      </trkpt>
      <trkpt lat="45.35335" lon="6.53814">
        <ele>1957.04</ele>
        <time>2018-08-28T05:51:31.000Z</time>
      </trkpt>
      <trkpt lat="45.35335" lon="6.53804">
        <ele>1957.02</ele>
        <time>2018-08-28T05:51:41.000Z</time>
      </trkpt>
      <trkpt lat="45.35339" lon="6.53792">
        <ele>1948.82</ele>
        <time>2018-08-28T05:51:51.000Z</time>
      </trkpt>
      <trkpt lat="45.35338" lon="6.53771">
        <ele>1947.26</ele>
        <time>2018-08-28T05:52:01.000Z</time>
      </trkpt>
      <trkpt lat="45.3536" lon="6.53775">
        <ele>1948.01</ele>
        <time>2018-08-28T05:52:11.000Z</time>
      </trkpt>
      <trkpt lat="45.35367" lon="6.53758">
        <ele>1953.73</ele>
        <time>2018-08-28T05:52:21.000Z</time>
      </trkpt>
      <trkpt lat="45.35373" lon="6.53732">
        <ele>1962.02</ele>
        <time>2018-08-28T05:52:31.000Z</time>
      </trkpt>
      <trkpt lat="45.35382" lon="6.5372">
        <ele>1962.43</ele>
        <time>2018-08-28T05:52:41.000Z</time>
      </trkpt>
      <trkpt lat="45.35395" lon="6.53714">
        <ele>1961.06</ele>
        <time>2018-08-28T05:52:51.000Z</time>
      </trkpt>
      <trkpt lat="45.35405" lon="6.53714">
        <ele>1955.09</ele>
        <time>2018-08-28T05:53:01.000Z</time>
      </trkpt>
      <trkpt lat="45.3542" lon="6.53691">
        <ele>1963.06</ele>
        <time>2018-08-28T05:53:11.000Z</time>
      </trkpt>
      <trkpt lat="45.35429" lon="6.53694">
        <ele>1962.31</ele>
        <time>2018-08-28T05:53:21.000Z</time>
      </trkpt>
      <trkpt lat="45.35437" lon="6.5369">
        <ele>1961.75</ele>
        <time>2018-08-28T05:53:31.000Z</time>
      </trkpt>
      <trkpt lat="45.35435" lon="6.53691">
        <ele>1963</ele>
        <time>2018-08-28T05:53:41.000Z</time>
      </trkpt>
      <trkpt lat="45.35433" lon="6.53694">
        <ele>1964</ele>
        <time>2018-08-28T05:53:51.000Z</time>
      </trkpt>
      <trkpt lat="45.35429" lon="6.53696">
        <ele>1963.25</ele>
        <time>2018-08-28T05:54:01.000Z</time>
      </trkpt>
      <trkpt lat="45.35429" lon="6.53686">
        <ele>1965</ele>
        <time>2018-08-28T05:54:11.000Z</time>
      </trkpt>
      <trkpt lat="45.35384" lon="6.53667">
        <ele>1962.92</ele>
        <time>2018-08-28T05:54:21.000Z</time>
      </trkpt>
      <trkpt lat="45.35431" lon="6.53718">
        <ele>1962.71</ele>
        <time>2018-08-28T05:54:31.000Z</time>
      </trkpt>
      <trkpt lat="45.3544" lon="6.5373">
        <ele>1964.19</ele>
        <time>2018-08-28T05:54:41.000Z</time>
      </trkpt>
      <trkpt lat="45.35447" lon="6.53737">
        <ele>1969.99</ele>
        <time>2018-08-28T05:54:51.000Z</time>
      </trkpt>
      <trkpt lat="45.35451" lon="6.53748">
        <ele>1971.23</ele>
        <time>2018-08-28T05:55:01.000Z</time>
      </trkpt>
      <trkpt lat="45.35445" lon="6.53763">
        <ele>1973.94</ele>
        <time>2018-08-28T05:55:11.000Z</time>
      </trkpt>
      <trkpt lat="45.35449" lon="6.53777">
        <ele>1971.14</ele>
        <time>2018-08-28T05:55:21.000Z</time>
      </trkpt>
      <trkpt lat="45.35452" lon="6.53792">
        <ele>1974.91</ele>
        <time>2018-08-28T05:55:31.000Z</time>
      </trkpt>
      <trkpt lat="45.35455" lon="6.53808">
        <ele>1973.86</ele>
        <time>2018-08-28T05:55:41.000Z</time>
      </trkpt>
      <trkpt lat="45.35458" lon="6.53831">
        <ele>1978.75</ele>
        <time>2018-08-28T05:55:51.000Z</time>
      </trkpt>
      <trkpt lat="45.3546" lon="6.53842">
        <ele>1976.08</ele>
        <time>2018-08-28T05:56:01.000Z</time>
      </trkpt>
      <trkpt lat="45.35462" lon="6.53858">
        <ele>1976</ele>
        <time>2018-08-28T05:56:11.000Z</time>
      </trkpt>
      <trkpt lat="45.35458" lon="6.53869">
        <ele>1981</ele>
        <time>2018-08-28T05:56:21.000Z</time>
      </trkpt>
      <trkpt lat="45.35453" lon="6.53883">
        <ele>1980.12</ele>
        <time>2018-08-28T05:56:31.000Z</time>
      </trkpt>
      <trkpt lat="45.35455" lon="6.53892">
        <ele>1981.43</ele>
        <time>2018-08-28T05:56:41.000Z</time>
      </trkpt>
      <trkpt lat="45.35459" lon="6.53904">
        <ele>1984</ele>
        <time>2018-08-28T05:56:51.000Z</time>
      </trkpt>
      <trkpt lat="45.35463" lon="6.53918">
        <ele>1987</ele>
        <time>2018-08-28T05:57:01.000Z</time>
      </trkpt>
      <trkpt lat="45.35467" lon="6.53933">
        <ele>1990.18</ele>
        <time>2018-08-28T05:57:11.000Z</time>
      </trkpt>
      <trkpt lat="45.35477" lon="6.53943">
        <ele>1989.82</ele>
        <time>2018-08-28T05:57:21.000Z</time>
      </trkpt>
      <trkpt lat="45.3549" lon="6.53944">
        <ele>1990</ele>
        <time>2018-08-28T05:57:31.000Z</time>
      </trkpt>
      <trkpt lat="45.35503" lon="6.53944">
        <ele>1985.06</ele>
        <time>2018-08-28T05:57:41.000Z</time>
      </trkpt>
      <trkpt lat="45.35512" lon="6.53934">
        <ele>1986</ele>
        <time>2018-08-28T05:57:51.000Z</time>
      </trkpt>
      <trkpt lat="45.35523" lon="6.53922">
        <ele>1989.74</ele>
        <time>2018-08-28T05:58:01.000Z</time>
      </trkpt>
      <trkpt lat="45.35535" lon="6.53918">
        <ele>1987</ele>
        <time>2018-08-28T05:58:11.000Z</time>
      </trkpt>
      <trkpt lat="45.35533" lon="6.53911">
        <ele>1985.25</ele>
        <time>2018-08-28T05:58:21.000Z</time>
      </trkpt>
      <trkpt lat="45.35546" lon="6.53912">
        <ele>1985.25</ele>
        <time>2018-08-28T05:58:31.000Z</time>
      </trkpt>
      <trkpt lat="45.35552" lon="6.53913">
        <ele>1987.5</ele>
        <time>2018-08-28T05:58:41.000Z</time>
      </trkpt>
      <trkpt lat="45.35569" lon="6.53912">
        <ele>1993.99</ele>
        <time>2018-08-28T05:58:51.000Z</time>
      </trkpt>
      <trkpt lat="45.35583" lon="6.53911">
        <ele>1994.67</ele>
        <time>2018-08-28T05:59:01.000Z</time>
      </trkpt>
      <trkpt lat="45.35594" lon="6.53913">
        <ele>1993.5</ele>
        <time>2018-08-28T05:59:11.000Z</time>
      </trkpt>
      <trkpt lat="45.3561" lon="6.53916">
        <ele>1989.92</ele>
        <time>2018-08-28T05:59:21.000Z</time>
      </trkpt>
      <trkpt lat="45.35622" lon="6.53924">
        <ele>1991.81</ele>
        <time>2018-08-28T05:59:31.000Z</time>
      </trkpt>
      <trkpt lat="45.35631" lon="6.53932">
        <ele>1991.73</ele>
        <time>2018-08-28T05:59:41.000Z</time>
      </trkpt>
      <trkpt lat="45.35636" lon="6.5395">
        <ele>1997.42</ele>
        <time>2018-08-28T05:59:51.000Z</time>
      </trkpt>
      <trkpt lat="45.35637" lon="6.53962">
        <ele>1996.06</ele>
        <time>2018-08-28T06:00:01.000Z</time>
      </trkpt>
      <trkpt lat="45.35638" lon="6.53973">
        <ele>1994.74</ele>
        <time>2018-08-28T06:00:11.000Z</time>
      </trkpt>
      <trkpt lat="45.35642" lon="6.53984">
        <ele>1997.75</ele>
        <time>2018-08-28T06:00:21.000Z</time>
      </trkpt>
      <trkpt lat="45.35641" lon="6.53996">
        <ele>2005.72</ele>
        <time>2018-08-28T06:00:31.000Z</time>
      </trkpt>
      <trkpt lat="45.35636" lon="6.5401">
        <ele>1998.08</ele>
        <time>2018-08-28T06:00:41.000Z</time>
      </trkpt>
      <trkpt lat="45.35642" lon="6.54019">
        <ele>2001.99</ele>
        <time>2018-08-28T06:00:51.000Z</time>
      </trkpt>
      <trkpt lat="45.35642" lon="6.54016">
        <ele>2009.85</ele>
        <time>2018-08-28T06:01:01.000Z</time>
      </trkpt>
      <trkpt lat="45.35642" lon="6.54022">
        <ele>2001.33</ele>
        <time>2018-08-28T06:01:11.000Z</time>
      </trkpt>
      <trkpt lat="45.35647" lon="6.54025">
        <ele>2001.99</ele>
        <time>2018-08-28T06:01:21.000Z</time>
      </trkpt>
      <trkpt lat="45.35654" lon="6.54037">
        <ele>2005</ele>
        <time>2018-08-28T06:01:31.000Z</time>
      </trkpt>
      <trkpt lat="45.35665" lon="6.54058">
        <ele>2006.75</ele>
        <time>2018-08-28T06:01:41.000Z</time>
      </trkpt>
      <trkpt lat="45.35671" lon="6.54068">
        <ele>2009.43</ele>
        <time>2018-08-28T06:01:51.000Z</time>
      </trkpt>
      <trkpt lat="45.35681" lon="6.54066">
        <ele>2015.91</ele>
        <time>2018-08-28T06:02:01.000Z</time>
      </trkpt>
      <trkpt lat="45.35696" lon="6.54064">
        <ele>2015.19</ele>
        <time>2018-08-28T06:02:11.000Z</time>
      </trkpt>
      <trkpt lat="45.35703" lon="6.54056">
        <ele>2014.01</ele>
        <time>2018-08-28T06:02:21.000Z</time>
      </trkpt>
      <trkpt lat="45.35714" lon="6.54046">
        <ele>2013</ele>
        <time>2018-08-28T06:02:31.000Z</time>
      </trkpt>
      <trkpt lat="45.3574" lon="6.54042">
        <ele>2010.81</ele>
        <time>2018-08-28T06:02:41.000Z</time>
      </trkpt>
      <trkpt lat="45.35734" lon="6.54044">
        <ele>2010</ele>
        <time>2018-08-28T06:02:51.000Z</time>
      </trkpt>
      <trkpt lat="45.3574" lon="6.54043">
        <ele>2020.54</ele>
        <time>2018-08-28T06:03:01.000Z</time>
      </trkpt>
      <trkpt lat="45.35745" lon="6.54049">
        <ele>2022</ele>
        <time>2018-08-28T06:03:11.000Z</time>
      </trkpt>
      <trkpt lat="45.35753" lon="6.54061">
        <ele>2022.93</ele>
        <time>2018-08-28T06:03:21.000Z</time>
      </trkpt>
      <trkpt lat="45.35759" lon="6.54066">
        <ele>2022.19</ele>
        <time>2018-08-28T06:03:31.000Z</time>
      </trkpt>
      <trkpt lat="45.35755" lon="6.54081">
        <ele>2022.31</ele>
        <time>2018-08-28T06:03:41.000Z</time>
      </trkpt>
      <trkpt lat="45.35752" lon="6.54087">
        <ele>2020.89</ele>
        <time>2018-08-28T06:03:51.000Z</time>
      </trkpt>
      <trkpt lat="45.35744" lon="6.54089">
        <ele>2025.11</ele>
        <time>2018-08-28T06:04:01.000Z</time>
      </trkpt>
      <trkpt lat="45.35733" lon="6.54092">
        <ele>2028.64</ele>
        <time>2018-08-28T06:04:11.000Z</time>
      </trkpt>
      <trkpt lat="45.35724" lon="6.54103">
        <ele>2026.27</ele>
        <time>2018-08-28T06:04:21.000Z</time>
      </trkpt>
      <trkpt lat="45.35716" lon="6.54111">
        <ele>2030.76</ele>
        <time>2018-08-28T06:04:31.000Z</time>
      </trkpt>
      <trkpt lat="45.35719" lon="6.54118">
        <ele>2034.98</ele>
        <time>2018-08-28T06:04:41.000Z</time>
      </trkpt>
      <trkpt lat="45.35726" lon="6.54118">
        <ele>2034.96</ele>
        <time>2018-08-28T06:04:51.000Z</time>
      </trkpt>
      <trkpt lat="45.35735" lon="6.5412">
        <ele>2038.01</ele>
        <time>2018-08-28T06:05:01.000Z</time>
      </trkpt>
      <trkpt lat="45.35743" lon="6.54126">
        <ele>2038.8</ele>
        <time>2018-08-28T06:05:11.000Z</time>
      </trkpt>
      <trkpt lat="45.35749" lon="6.54127">
        <ele>2037.79</ele>
        <time>2018-08-28T06:05:21.000Z</time>
      </trkpt>
      <trkpt lat="45.35759" lon="6.54129">
        <ele>2037.11</ele>
        <time>2018-08-28T06:05:31.000Z</time>
      </trkpt>
      <trkpt lat="45.35769" lon="6.54135">
        <ele>2041.04</ele>
        <time>2018-08-28T06:05:41.000Z</time>
      </trkpt>
      <trkpt lat="45.35772" lon="6.54137">
        <ele>2037.01</ele>
        <time>2018-08-28T06:05:51.000Z</time>
      </trkpt>
      <trkpt lat="45.35784" lon="6.54146">
        <ele>2046.8</ele>
        <time>2018-08-28T06:06:01.000Z</time>
      </trkpt>
      <trkpt lat="45.35796" lon="6.54152">
        <ele>2054.68</ele>
        <time>2018-08-28T06:06:11.000Z</time>
      </trkpt>
      <trkpt lat="45.35802" lon="6.54154">
        <ele>2057.78</ele>
        <time>2018-08-28T06:06:21.000Z</time>
      </trkpt>
      <trkpt lat="45.35812" lon="6.54156">
        <ele>2057.76</ele>
        <time>2018-08-28T06:06:31.000Z</time>
      </trkpt>
      <trkpt lat="45.35817" lon="6.54157">
        <ele>2054.82</ele>
        <time>2018-08-28T06:06:41.000Z</time>
      </trkpt>
      <trkpt lat="45.35829" lon="6.54158">
        <ele>2058.69</ele>
        <time>2018-08-28T06:06:51.000Z</time>
      </trkpt>
      <trkpt lat="45.35838" lon="6.54155">
        <ele>2058.95</ele>
        <time>2018-08-28T06:07:01.000Z</time>
      </trkpt>
      <trkpt lat="45.3585" lon="6.54157">
        <ele>2059.01</ele>
        <time>2018-08-28T06:07:11.000Z</time>
      </trkpt>
      <trkpt lat="45.35859" lon="6.54163">
        <ele>2063.13</ele>
        <time>2018-08-28T06:07:21.000Z</time>
      </trkpt>
      <trkpt lat="45.35868" lon="6.54165">
        <ele>2064.76</ele>
        <time>2018-08-28T06:07:31.000Z</time>
      </trkpt>
      <trkpt lat="45.3588" lon="6.54165">
        <ele>2065.77</ele>
        <time>2018-08-28T06:07:41.000Z</time>
      </trkpt>
      <trkpt lat="45.35892" lon="6.54168">
        <ele>2068.06</ele>
        <time>2018-08-28T06:07:51.000Z</time>
      </trkpt>
      <trkpt lat="45.35902" lon="6.54173">
        <ele>2066.81</ele>
        <time>2018-08-28T06:08:01.000Z</time>
      </trkpt>
      <trkpt lat="45.35913" lon="6.54184">
        <ele>2070.99</ele>
        <time>2018-08-28T06:08:11.000Z</time>
      </trkpt>
      <trkpt lat="45.35922" lon="6.54196">
        <ele>2072.76</ele>
        <time>2018-08-28T06:08:21.000Z</time>
      </trkpt>
      <trkpt lat="45.35933" lon="6.54201">
        <ele>2073</ele>
        <time>2018-08-28T06:08:31.000Z</time>
      </trkpt>
      <trkpt lat="45.35941" lon="6.54202">
        <ele>2072.6</ele>
        <time>2018-08-28T06:08:41.000Z</time>
      </trkpt>
      <trkpt lat="45.35952" lon="6.54203">
        <ele>2077.91</ele>
        <time>2018-08-28T06:08:51.000Z</time>
      </trkpt>
      <trkpt lat="45.35959" lon="6.54202">
        <ele>2079.73</ele>
        <time>2018-08-28T06:09:01.000Z</time>
      </trkpt>
      <trkpt lat="45.35966" lon="6.54204">
        <ele>2080.23</ele>
        <time>2018-08-28T06:09:11.000Z</time>
      </trkpt>
      <trkpt lat="45.35977" lon="6.54207">
        <ele>2080.25</ele>
        <time>2018-08-28T06:09:21.000Z</time>
      </trkpt>
      <trkpt lat="45.35983" lon="6.54213">
        <ele>2076.25</ele>
        <time>2018-08-28T06:09:31.000Z</time>
      </trkpt>
      <trkpt lat="45.35996" lon="6.54219">
        <ele>2079.75</ele>
        <time>2018-08-28T06:09:41.000Z</time>
      </trkpt>
      <trkpt lat="45.36006" lon="6.54222">
        <ele>2081.63</ele>
        <time>2018-08-28T06:09:51.000Z</time>
      </trkpt>
      <trkpt lat="45.36015" lon="6.54229">
        <ele>2084.58</ele>
        <time>2018-08-28T06:10:01.000Z</time>
      </trkpt>
      <trkpt lat="45.36022" lon="6.54245">
        <ele>2089.19</ele>
        <time>2018-08-28T06:10:11.000Z</time>
      </trkpt>
      <trkpt lat="45.36029" lon="6.54251">
        <ele>2089.07</ele>
        <time>2018-08-28T06:10:21.000Z</time>
      </trkpt>
      <trkpt lat="45.36039" lon="6.54261">
        <ele>2090.13</ele>
        <time>2018-08-28T06:10:31.000Z</time>
      </trkpt>
      <trkpt lat="45.36042" lon="6.5427">
        <ele>2090.01</ele>
        <time>2018-08-28T06:10:41.000Z</time>
      </trkpt>
      <trkpt lat="45.36039" lon="6.54283">
        <ele>2090</ele>
        <time>2018-08-28T06:10:51.000Z</time>
      </trkpt>
      <trkpt lat="45.36039" lon="6.54303">
        <ele>2094.75</ele>
        <time>2018-08-28T06:11:01.000Z</time>
      </trkpt>
      <trkpt lat="45.36043" lon="6.54324">
        <ele>2098</ele>
        <time>2018-08-28T06:11:11.000Z</time>
      </trkpt>
      <trkpt lat="45.36047" lon="6.5433">
        <ele>2098.75</ele>
        <time>2018-08-28T06:11:21.000Z</time>
      </trkpt>
      <trkpt lat="45.36045" lon="6.54343">
        <ele>2101.94</ele>
        <time>2018-08-28T06:11:31.000Z</time>
      </trkpt>
      <trkpt lat="45.36041" lon="6.54353">
        <ele>2101.94</ele>
        <time>2018-08-28T06:11:41.000Z</time>
      </trkpt>
      <trkpt lat="45.36036" lon="6.54365">
        <ele>2101.06</ele>
        <time>2018-08-28T06:11:51.000Z</time>
      </trkpt>
      <trkpt lat="45.36032" lon="6.54368">
        <ele>2099.25</ele>
        <time>2018-08-28T06:12:01.000Z</time>
      </trkpt>
      <trkpt lat="45.36025" lon="6.54377">
        <ele>2103.67</ele>
        <time>2018-08-28T06:12:11.000Z</time>
      </trkpt>
      <trkpt lat="45.36017" lon="6.54381">
        <ele>2103.79</ele>
        <time>2018-08-28T06:12:21.000Z</time>
      </trkpt>
      <trkpt lat="45.36008" lon="6.54389">
        <ele>2110.82</ele>
        <time>2018-08-28T06:12:31.000Z</time>
      </trkpt>
      <trkpt lat="45.36006" lon="6.54401">
        <ele>2110.31</ele>
        <time>2018-08-28T06:12:41.000Z</time>
      </trkpt>
      <trkpt lat="45.36006" lon="6.54408">
        <ele>2107</ele>
        <time>2018-08-28T06:12:51.000Z</time>
      </trkpt>
      <trkpt lat="45.36009" lon="6.54425">
        <ele>2111.47</ele>
        <time>2018-08-28T06:13:01.000Z</time>
      </trkpt>
      <trkpt lat="45.36012" lon="6.5444">
        <ele>2115</ele>
        <time>2018-08-28T06:13:11.000Z</time>
      </trkpt>
      <trkpt lat="45.36014" lon="6.54455">
        <ele>2116.31</ele>
        <time>2018-08-28T06:13:21.000Z</time>
      </trkpt>
      <trkpt lat="45.36013" lon="6.54469">
        <ele>2116</ele>
        <time>2018-08-28T06:13:31.000Z</time>
      </trkpt>
      <trkpt lat="45.36013" lon="6.54481">
        <ele>2118.49</ele>
        <time>2018-08-28T06:13:41.000Z</time>
      </trkpt>
      <trkpt lat="45.36012" lon="6.54494">
        <ele>2123.11</ele>
        <time>2018-08-28T06:13:51.000Z</time>
      </trkpt>
      <trkpt lat="45.36008" lon="6.54507">
        <ele>2123.77</ele>
        <time>2018-08-28T06:14:01.000Z</time>
      </trkpt>
      <trkpt lat="45.36002" lon="6.54515">
        <ele>2125.98</ele>
        <time>2018-08-28T06:14:11.000Z</time>
      </trkpt>
      <trkpt lat="45.35998" lon="6.54518">
        <ele>2129.75</ele>
        <time>2018-08-28T06:14:21.000Z</time>
      </trkpt>
      <trkpt lat="45.35987" lon="6.54515">
        <ele>2138.86</ele>
        <time>2018-08-28T06:14:31.000Z</time>
      </trkpt>
      <trkpt lat="45.35987" lon="6.54517">
        <ele>2139.01</ele>
        <time>2018-08-28T06:14:41.000Z</time>
      </trkpt>
      <trkpt lat="45.35981" lon="6.54511">
        <ele>2138.54</ele>
        <time>2018-08-28T06:14:51.000Z</time>
      </trkpt>
      <trkpt lat="45.35974" lon="6.545">
        <ele>2141.62</ele>
        <time>2018-08-28T06:15:01.000Z</time>
      </trkpt>
      <trkpt lat="45.35966" lon="6.54503">
        <ele>2138.19</ele>
        <time>2018-08-28T06:15:11.000Z</time>
      </trkpt>
      <trkpt lat="45.35961" lon="6.5451">
        <ele>2143.77</ele>
        <time>2018-08-28T06:15:21.000Z</time>
      </trkpt>
      <trkpt lat="45.35952" lon="6.54518">
        <ele>2139.94</ele>
        <time>2018-08-28T06:15:31.000Z</time>
      </trkpt>
      <trkpt lat="45.35943" lon="6.54527">
        <ele>2144.71</ele>
        <time>2018-08-28T06:15:41.000Z</time>
      </trkpt>
      <trkpt lat="45.35943" lon="6.54533">
        <ele>2142.61</ele>
        <time>2018-08-28T06:15:51.000Z</time>
      </trkpt>
      <trkpt lat="45.35932" lon="6.54539">
        <ele>2145.92</ele>
        <time>2018-08-28T06:16:01.000Z</time>
      </trkpt>
      <trkpt lat="45.35916" lon="6.54545">
        <ele>2149.69</ele>
        <time>2018-08-28T06:16:11.000Z</time>
      </trkpt>
      <trkpt lat="45.35911" lon="6.5455">
        <ele>2147.38</ele>
        <time>2018-08-28T06:16:21.000Z</time>
      </trkpt>
      <trkpt lat="45.35906" lon="6.5456">
        <ele>2149.18</ele>
        <time>2018-08-28T06:16:31.000Z</time>
      </trkpt>
      <trkpt lat="45.35904" lon="6.54573">
        <ele>2156.68</ele>
        <time>2018-08-28T06:16:41.000Z</time>
      </trkpt>
      <trkpt lat="45.35895" lon="6.54584">
        <ele>2153.25</ele>
        <time>2018-08-28T06:16:51.000Z</time>
      </trkpt>
      <trkpt lat="45.35889" lon="6.54594">
        <ele>2152</ele>
        <time>2018-08-28T06:17:01.000Z</time>
      </trkpt>
      <trkpt lat="45.35883" lon="6.54606">
        <ele>2155.81</ele>
        <time>2018-08-28T06:17:11.000Z</time>
      </trkpt>
      <trkpt lat="45.35876" lon="6.54615">
        <ele>2158.93</ele>
        <time>2018-08-28T06:17:21.000Z</time>
      </trkpt>
      <trkpt lat="45.35868" lon="6.54626">
        <ele>2160.98</ele>
        <time>2018-08-28T06:17:31.000Z</time>
      </trkpt>
      <trkpt lat="45.35861" lon="6.54636">
        <ele>2161.06</ele>
        <time>2018-08-28T06:17:41.000Z</time>
      </trkpt>
      <trkpt lat="45.35851" lon="6.54641">
        <ele>2162.75</ele>
        <time>2018-08-28T06:17:51.000Z</time>
      </trkpt>
      <trkpt lat="45.35849" lon="6.54643">
        <ele>2166</ele>
        <time>2018-08-28T06:18:01.000Z</time>
      </trkpt>
      <trkpt lat="45.35848" lon="6.54644">
        <ele>2164.5</ele>
        <time>2018-08-28T06:18:21.000Z</time>
      </trkpt>
      <trkpt lat="45.35845" lon="6.54643">
        <ele>2163.75</ele>
        <time>2018-08-28T06:18:42.000Z</time>
      </trkpt>
      <trkpt lat="45.35829" lon="6.5463">
        <ele>2164.63</ele>
        <time>2018-08-28T06:18:52.000Z</time>
      </trkpt>
      <trkpt lat="45.35821" lon="6.54611">
        <ele>2168.19</ele>
        <time>2018-08-28T06:19:02.000Z</time>
      </trkpt>
      <trkpt lat="45.35807" lon="6.54605">
        <ele>2170.94</ele>
        <time>2018-08-28T06:19:12.000Z</time>
      </trkpt>
      <trkpt lat="45.35797" lon="6.54592">
        <ele>2169.31</ele>
        <time>2018-08-28T06:19:22.000Z</time>
      </trkpt>
      <trkpt lat="45.35785" lon="6.54576">
        <ele>2167.18</ele>
        <time>2018-08-28T06:19:32.000Z</time>
      </trkpt>
      <trkpt lat="45.35772" lon="6.5458">
        <ele>2163.96</ele>
        <time>2018-08-28T06:19:42.000Z</time>
      </trkpt>
      <trkpt lat="45.35772" lon="6.54583">
        <ele>2165.74</ele>
        <time>2018-08-28T06:19:52.000Z</time>
      </trkpt>
      <trkpt lat="45.35772" lon="6.54585">
        <ele>2165</ele>
        <time>2018-08-28T06:20:02.000Z</time>
      </trkpt>
      <trkpt lat="45.35757" lon="6.54578">
        <ele>2165.08</ele>
        <time>2018-08-28T06:20:12.000Z</time>
      </trkpt>
      <trkpt lat="45.35745" lon="6.54576">
        <ele>2169</ele>
        <time>2018-08-28T06:20:22.000Z</time>
      </trkpt>
      <trkpt lat="45.35744" lon="6.54577">
        <ele>2169</ele>
        <time>2018-08-28T06:20:52.000Z</time>
      </trkpt>
      <trkpt lat="45.35731" lon="6.54584">
        <ele>2168.05</ele>
        <time>2018-08-28T06:21:02.000Z</time>
      </trkpt>
      <trkpt lat="45.35716" lon="6.54591">
        <ele>2166.69</ele>
        <time>2018-08-28T06:21:12.000Z</time>
      </trkpt>
      <trkpt lat="45.35706" lon="6.54599">
        <ele>2165.06</ele>
        <time>2018-08-28T06:21:22.000Z</time>
      </trkpt>
      <trkpt lat="45.35696" lon="6.54599">
        <ele>2166.23</ele>
        <time>2018-08-28T06:21:32.000Z</time>
      </trkpt>
      <trkpt lat="45.35687" lon="6.54614">
        <ele>2165.92</ele>
        <time>2018-08-28T06:21:42.000Z</time>
      </trkpt>
      <trkpt lat="45.35681" lon="6.54627">
        <ele>2162.94</ele>
        <time>2018-08-28T06:21:52.000Z</time>
      </trkpt>
      <trkpt lat="45.3567" lon="6.54636">
        <ele>2165.27</ele>
        <time>2018-08-28T06:22:02.000Z</time>
      </trkpt>
      <trkpt lat="45.35659" lon="6.54653">
        <ele>2169</ele>
        <time>2018-08-28T06:22:12.000Z</time>
      </trkpt>
      <trkpt lat="45.3566" lon="6.54658">
        <ele>2173.34</ele>
        <time>2018-08-28T06:22:22.000Z</time>
      </trkpt>
      <trkpt lat="45.35656" lon="6.54665">
        <ele>2174</ele>
        <time>2018-08-28T06:22:32.000Z</time>
      </trkpt>
      <trkpt lat="45.35654" lon="6.54667">
        <ele>2177</ele>
        <time>2018-08-28T06:22:42.000Z</time>
      </trkpt>
      <trkpt lat="45.35648" lon="6.54672">
        <ele>2177</ele>
        <time>2018-08-28T06:23:09.000Z</time>
      </trkpt>
      <trkpt lat="45.35615" lon="6.54688">
        <ele>2181.04</ele>
        <time>2018-08-28T06:23:19.000Z</time>
      </trkpt>
      <trkpt lat="45.356" lon="6.54696">
        <ele>2184.02</ele>
        <time>2018-08-28T06:23:29.000Z</time>
      </trkpt>
      <trkpt lat="45.35591" lon="6.54715">
        <ele>2187</ele>
        <time>2018-08-28T06:23:39.000Z</time>
      </trkpt>
      <trkpt lat="45.35595" lon="6.54722">
        <ele>2184.66</ele>
        <time>2018-08-28T06:23:49.000Z</time>
      </trkpt>
      <trkpt lat="45.35588" lon="6.54719">
        <ele>2179.02</ele>
        <time>2018-08-28T06:23:59.000Z</time>
      </trkpt>
      <trkpt lat="45.35575" lon="6.54722">
        <ele>2179</ele>
        <time>2018-08-28T06:24:09.000Z</time>
      </trkpt>
      <trkpt lat="45.35565" lon="6.54725">
        <ele>2183.9</ele>
        <time>2018-08-28T06:24:19.000Z</time>
      </trkpt>
      <trkpt lat="45.35555" lon="6.54728">
        <ele>2181.88</ele>
        <time>2018-08-28T06:24:29.000Z</time>
      </trkpt>
      <trkpt lat="45.35547" lon="6.54732">
        <ele>2180.05</ele>
        <time>2018-08-28T06:24:39.000Z</time>
      </trkpt>
      <trkpt lat="45.35541" lon="6.54741">
        <ele>2179.75</ele>
        <time>2018-08-28T06:24:49.000Z</time>
      </trkpt>
      <trkpt lat="45.3555" lon="6.54749">
        <ele>2184.23</ele>
        <time>2018-08-28T06:24:59.000Z</time>
      </trkpt>
      <trkpt lat="45.35563" lon="6.54754">
        <ele>2186.75</ele>
        <time>2018-08-28T06:25:09.000Z</time>
      </trkpt>
      <trkpt lat="45.35569" lon="6.5476">
        <ele>2187.01</ele>
        <time>2018-08-28T06:25:19.000Z</time>
      </trkpt>
      <trkpt lat="45.3557" lon="6.54762">
        <ele>2189.98</ele>
        <time>2018-08-28T06:25:29.000Z</time>
      </trkpt>
      <trkpt lat="45.35568" lon="6.54766">
        <ele>2188.84</ele>
        <time>2018-08-28T06:25:39.000Z</time>
      </trkpt>
      <trkpt lat="45.3557" lon="6.54766">
        <ele>2187.82</ele>
        <time>2018-08-28T06:25:49.000Z</time>
      </trkpt>
      <trkpt lat="45.35571" lon="6.54767">
        <ele>2187.31</ele>
        <time>2018-08-28T06:25:59.000Z</time>
      </trkpt>
      <trkpt lat="45.35569" lon="6.54766">
        <ele>2187.05</ele>
        <time>2018-08-28T06:26:09.000Z</time>
      </trkpt>
      <trkpt lat="45.35568" lon="6.54766">
        <ele>2186</ele>
        <time>2018-08-28T06:26:19.000Z</time>
      </trkpt>
      <trkpt lat="45.35568" lon="6.54767">
        <ele>2183.01</ele>
        <time>2018-08-28T06:26:29.000Z</time>
      </trkpt>
      <trkpt lat="45.35567" lon="6.54765">
        <ele>2184.23</ele>
        <time>2018-08-28T06:26:39.000Z</time>
      </trkpt>
      <trkpt lat="45.35573" lon="6.54776">
        <ele>2191.94</ele>
        <time>2018-08-28T06:26:49.000Z</time>
      </trkpt>
      <trkpt lat="45.35571" lon="6.54789">
        <ele>2190.8</ele>
        <time>2018-08-28T06:26:59.000Z</time>
      </trkpt>
      <trkpt lat="45.35576" lon="6.54813">
        <ele>2198.63</ele>
        <time>2018-08-28T06:27:09.000Z</time>
      </trkpt>
      <trkpt lat="45.35583" lon="6.54827">
        <ele>2198.5</ele>
        <time>2018-08-28T06:27:19.000Z</time>
      </trkpt>
      <trkpt lat="45.35589" lon="6.54837">
        <ele>2199.05</ele>
        <time>2018-08-28T06:27:29.000Z</time>
      </trkpt>
      <trkpt lat="45.35596" lon="6.54846">
        <ele>2200.06</ele>
        <time>2018-08-28T06:27:39.000Z</time>
      </trkpt>
      <trkpt lat="45.35598" lon="6.54862">
        <ele>2200.69</ele>
        <time>2018-08-28T06:27:49.000Z</time>
      </trkpt>
      <trkpt lat="45.35592" lon="6.54874">
        <ele>2200.94</ele>
        <time>2018-08-28T06:27:59.000Z</time>
      </trkpt>
      <trkpt lat="45.35582" lon="6.54881">
        <ele>2200</ele>
        <time>2018-08-28T06:28:09.000Z</time>
      </trkpt>
      <trkpt lat="45.35571" lon="6.5489">
        <ele>2200.89</ele>
        <time>2018-08-28T06:28:19.000Z</time>
      </trkpt>
      <trkpt lat="45.35557" lon="6.54899">
        <ele>2202.74</ele>
        <time>2018-08-28T06:28:29.000Z</time>
      </trkpt>
      <trkpt lat="45.35546" lon="6.54901">
        <ele>2207.01</ele>
        <time>2018-08-28T06:28:39.000Z</time>
      </trkpt>
      <trkpt lat="45.35538" lon="6.549">
        <ele>2212.66</ele>
        <time>2018-08-28T06:28:49.000Z</time>
      </trkpt>
      <trkpt lat="45.35527" lon="6.54911">
        <ele>2213</ele>
        <time>2018-08-28T06:28:59.000Z</time>
      </trkpt>
      <trkpt lat="45.35519" lon="6.5492">
        <ele>2211.02</ele>
        <time>2018-08-28T06:29:09.000Z</time>
      </trkpt>
      <trkpt lat="45.35512" lon="6.54928">
        <ele>2210.94</ele>
        <time>2018-08-28T06:29:19.000Z</time>
      </trkpt>
      <trkpt lat="45.35505" lon="6.54939">
        <ele>2213.99</ele>
        <time>2018-08-28T06:29:29.000Z</time>
      </trkpt>
      <trkpt lat="45.35497" lon="6.54951">
        <ele>2216.92</ele>
        <time>2018-08-28T06:29:39.000Z</time>
      </trkpt>
      <trkpt lat="45.35489" lon="6.54962">
        <ele>2219.68</ele>
        <time>2018-08-28T06:29:49.000Z</time>
      </trkpt>
      <trkpt lat="45.35482" lon="6.54971">
        <ele>2223</ele>
        <time>2018-08-28T06:29:59.000Z</time>
      </trkpt>
      <trkpt lat="45.35473" lon="6.54979">
        <ele>2221.04</ele>
        <time>2018-08-28T06:30:09.000Z</time>
      </trkpt>
      <trkpt lat="45.35463" lon="6.54987">
        <ele>2224.95</ele>
        <time>2018-08-28T06:30:19.000Z</time>
      </trkpt>
      <trkpt lat="45.35456" lon="6.54995">
        <ele>2224.3</ele>
        <time>2018-08-28T06:30:29.000Z</time>
      </trkpt>
      <trkpt lat="45.35459" lon="6.55005">
        <ele>2224.7</ele>
        <time>2018-08-28T06:30:39.000Z</time>
      </trkpt>
      <trkpt lat="45.35466" lon="6.55018">
        <ele>2226.25</ele>
        <time>2018-08-28T06:30:49.000Z</time>
      </trkpt>
      <trkpt lat="45.35471" lon="6.5503">
        <ele>2228.98</ele>
        <time>2018-08-28T06:30:59.000Z</time>
      </trkpt>
      <trkpt lat="45.35479" lon="6.5504">
        <ele>2230.18</ele>
        <time>2018-08-28T06:31:09.000Z</time>
      </trkpt>
      <trkpt lat="45.35488" lon="6.5505">
        <ele>2232.25</ele>
        <time>2018-08-28T06:31:19.000Z</time>
      </trkpt>
      <trkpt lat="45.35491" lon="6.55063">
        <ele>2235.23</ele>
        <time>2018-08-28T06:31:29.000Z</time>
      </trkpt>
      <trkpt lat="45.35488" lon="6.55073">
        <ele>2234.51</ele>
        <time>2018-08-28T06:31:39.000Z</time>
      </trkpt>
      <trkpt lat="45.35476" lon="6.55078">
        <ele>2232.01</ele>
        <time>2018-08-28T06:31:49.000Z</time>
      </trkpt>
      <trkpt lat="45.35463" lon="6.55084">
        <ele>2240.69</ele>
        <time>2018-08-28T06:31:59.000Z</time>
      </trkpt>
      <trkpt lat="45.35455" lon="6.55092">
        <ele>2242.98</ele>
        <time>2018-08-28T06:32:09.000Z</time>
      </trkpt>
      <trkpt lat="45.35443" lon="6.55093">
        <ele>2245.73</ele>
        <time>2018-08-28T06:32:19.000Z</time>
      </trkpt>
      <trkpt lat="45.35432" lon="6.55098">
        <ele>2248.04</ele>
        <time>2018-08-28T06:32:29.000Z</time>
      </trkpt>
      <trkpt lat="45.35422" lon="6.55103">
        <ele>2248.25</ele>
        <time>2018-08-28T06:32:39.000Z</time>
      </trkpt>
      <trkpt lat="45.35413" lon="6.55106">
        <ele>2249.01</ele>
        <time>2018-08-28T06:32:49.000Z</time>
      </trkpt>
      <trkpt lat="45.35407" lon="6.55117">
        <ele>2249.93</ele>
        <time>2018-08-28T06:32:59.000Z</time>
      </trkpt>
      <trkpt lat="45.354" lon="6.55129">
        <ele>2246.31</ele>
        <time>2018-08-28T06:33:09.000Z</time>
      </trkpt>
      <trkpt lat="45.35391" lon="6.55138">
        <ele>2245.96</ele>
        <time>2018-08-28T06:33:19.000Z</time>
      </trkpt>
      <trkpt lat="45.3538" lon="6.55133">
        <ele>2253.8</ele>
        <time>2018-08-28T06:33:29.000Z</time>
      </trkpt>
      <trkpt lat="45.35373" lon="6.55129">
        <ele>2256.95</ele>
        <time>2018-08-28T06:33:39.000Z</time>
      </trkpt>
      <trkpt lat="45.35372" lon="6.55141">
        <ele>2259.55</ele>
        <time>2018-08-28T06:33:49.000Z</time>
      </trkpt>
      <trkpt lat="45.35385" lon="6.55142">
        <ele>2259.25</ele>
        <time>2018-08-28T06:33:59.000Z</time>
      </trkpt>
      <trkpt lat="45.35393" lon="6.55147">
        <ele>2263.45</ele>
        <time>2018-08-28T06:34:09.000Z</time>
      </trkpt>
      <trkpt lat="45.35401" lon="6.55156">
        <ele>2263.07</ele>
        <time>2018-08-28T06:34:19.000Z</time>
      </trkpt>
      <trkpt lat="45.35408" lon="6.55169">
        <ele>2266.17</ele>
        <time>2018-08-28T06:34:29.000Z</time>
      </trkpt>
      <trkpt lat="45.35412" lon="6.5518">
        <ele>2270.94</ele>
        <time>2018-08-28T06:34:39.000Z</time>
      </trkpt>
      <trkpt lat="45.35409" lon="6.55184">
        <ele>2270.19</ele>
        <time>2018-08-28T06:34:49.000Z</time>
      </trkpt>
      <trkpt lat="45.35406" lon="6.55193">
        <ele>2265.19</ele>
        <time>2018-08-28T06:34:59.000Z</time>
      </trkpt>
      <trkpt lat="45.35406" lon="6.55191">
        <ele>2265</ele>
        <time>2018-08-28T06:35:10.000Z</time>
      </trkpt>
      <trkpt lat="45.35416" lon="6.55189">
        <ele>2265.96</ele>
        <time>2018-08-28T06:35:20.000Z</time>
      </trkpt>
      <trkpt lat="45.35428" lon="6.55193">
        <ele>2267.99</ele>
        <time>2018-08-28T06:35:30.000Z</time>
      </trkpt>
      <trkpt lat="45.35442" lon="6.55199">
        <ele>2269.5</ele>
        <time>2018-08-28T06:35:40.000Z</time>
      </trkpt>
      <trkpt lat="45.35452" lon="6.55206">
        <ele>2268.64</ele>
        <time>2018-08-28T06:35:50.000Z</time>
      </trkpt>
      <trkpt lat="45.35462" lon="6.55212">
        <ele>2270.7</ele>
        <time>2018-08-28T06:36:00.000Z</time>
      </trkpt>
      <trkpt lat="45.35472" lon="6.55221">
        <ele>2272.98</ele>
        <time>2018-08-28T06:36:10.000Z</time>
      </trkpt>
      <trkpt lat="45.35479" lon="6.55235">
        <ele>2275.98</ele>
        <time>2018-08-28T06:36:20.000Z</time>
      </trkpt>
      <trkpt lat="45.35485" lon="6.55245">
        <ele>2274.2</ele>
        <time>2018-08-28T06:36:30.000Z</time>
      </trkpt>
      <trkpt lat="45.3549" lon="6.55256">
        <ele>2272.81</ele>
        <time>2018-08-28T06:36:40.000Z</time>
      </trkpt>
      <trkpt lat="45.35499" lon="6.55261">
        <ele>2273.82</ele>
        <time>2018-08-28T06:36:50.000Z</time>
      </trkpt>
      <trkpt lat="45.35509" lon="6.55267">
        <ele>2278.19</ele>
        <time>2018-08-28T06:37:00.000Z</time>
      </trkpt>
      <trkpt lat="45.35517" lon="6.55275">
        <ele>2277.94</ele>
        <time>2018-08-28T06:37:10.000Z</time>
      </trkpt>
      <trkpt lat="45.35531" lon="6.55282">
        <ele>2281.7</ele>
        <time>2018-08-28T06:37:20.000Z</time>
      </trkpt>
      <trkpt lat="45.35541" lon="6.55291">
        <ele>2282</ele>
        <time>2018-08-28T06:37:30.000Z</time>
      </trkpt>
      <trkpt lat="45.35553" lon="6.55299">
        <ele>2283.7</ele>
        <time>2018-08-28T06:37:40.000Z</time>
      </trkpt>
      <trkpt lat="45.35559" lon="6.55311">
        <ele>2283.76</ele>
        <time>2018-08-28T06:37:50.000Z</time>
      </trkpt>
      <trkpt lat="45.35568" lon="6.55321">
        <ele>2285.05</ele>
        <time>2018-08-28T06:38:00.000Z</time>
      </trkpt>
      <trkpt lat="45.35576" lon="6.55328">
        <ele>2286.94</ele>
        <time>2018-08-28T06:38:10.000Z</time>
      </trkpt>
      <trkpt lat="45.35588" lon="6.55334">
        <ele>2292.91</ele>
        <time>2018-08-28T06:38:20.000Z</time>
      </trkpt>
      <trkpt lat="45.35599" lon="6.55342">
        <ele>2290.07</ele>
        <time>2018-08-28T06:38:30.000Z</time>
      </trkpt>
      <trkpt lat="45.35614" lon="6.55351">
        <ele>2288.78</ele>
        <time>2018-08-28T06:38:40.000Z</time>
      </trkpt>
      <trkpt lat="45.35626" lon="6.5536">
        <ele>2289.18</ele>
        <time>2018-08-28T06:38:50.000Z</time>
      </trkpt>
      <trkpt lat="45.35637" lon="6.55367">
        <ele>2285.07</ele>
        <time>2018-08-28T06:39:00.000Z</time>
      </trkpt>
      <trkpt lat="45.35645" lon="6.55367">
        <ele>2286.02</ele>
        <time>2018-08-28T06:39:10.000Z</time>
      </trkpt>
      <trkpt lat="45.35655" lon="6.55372">
        <ele>2288.17</ele>
        <time>2018-08-28T06:39:20.000Z</time>
      </trkpt>
      <trkpt lat="45.3567" lon="6.55376">
        <ele>2286.94</ele>
        <time>2018-08-28T06:39:30.000Z</time>
      </trkpt>
      <trkpt lat="45.35681" lon="6.55374">
        <ele>2288.19</ele>
        <time>2018-08-28T06:39:40.000Z</time>
      </trkpt>
      <trkpt lat="45.35692" lon="6.55369">
        <ele>2284.08</ele>
        <time>2018-08-28T06:39:50.000Z</time>
      </trkpt>
      <trkpt lat="45.35701" lon="6.55353">
        <ele>2291.92</ele>
        <time>2018-08-28T06:40:00.000Z</time>
      </trkpt>
      <trkpt lat="45.35708" lon="6.55343">
        <ele>2295</ele>
        <time>2018-08-28T06:40:10.000Z</time>
      </trkpt>
      <trkpt lat="45.35721" lon="6.55334">
        <ele>2295.55</ele>
        <time>2018-08-28T06:40:20.000Z</time>
      </trkpt>
      <trkpt lat="45.35733" lon="6.55328">
        <ele>2296.44</ele>
        <time>2018-08-28T06:40:30.000Z</time>
      </trkpt>
      <trkpt lat="45.35744" lon="6.55334">
        <ele>2294.02</ele>
        <time>2018-08-28T06:40:40.000Z</time>
      </trkpt>
      <trkpt lat="45.35752" lon="6.55338">
        <ele>2295.81</ele>
        <time>2018-08-28T06:40:50.000Z</time>
      </trkpt>
      <trkpt lat="45.35762" lon="6.5534">
        <ele>2297.76</ele>
        <time>2018-08-28T06:41:00.000Z</time>
      </trkpt>
      <trkpt lat="45.35776" lon="6.55346">
        <ele>2300.98</ele>
        <time>2018-08-28T06:41:10.000Z</time>
      </trkpt>
      <trkpt lat="45.35784" lon="6.55353">
        <ele>2300.69</ele>
        <time>2018-08-28T06:41:20.000Z</time>
      </trkpt>
      <trkpt lat="45.35791" lon="6.55362">
        <ele>2299.26</ele>
        <time>2018-08-28T06:41:30.000Z</time>
      </trkpt>
      <trkpt lat="45.35801" lon="6.5537">
        <ele>2300.99</ele>
        <time>2018-08-28T06:41:40.000Z</time>
      </trkpt>
      <trkpt lat="45.35806" lon="6.55377">
        <ele>2302.01</ele>
        <time>2018-08-28T06:41:50.000Z</time>
      </trkpt>
      <trkpt lat="45.35813" lon="6.55384">
        <ele>2305.5</ele>
        <time>2018-08-28T06:42:00.000Z</time>
      </trkpt>
      <trkpt lat="45.35811" lon="6.55397">
        <ele>2305.71</ele>
        <time>2018-08-28T06:42:10.000Z</time>
      </trkpt>
      <trkpt lat="45.35797" lon="6.55406">
        <ele>2306.75</ele>
        <time>2018-08-28T06:42:20.000Z</time>
      </trkpt>
      <trkpt lat="45.35789" lon="6.55414">
        <ele>2306.72</ele>
        <time>2018-08-28T06:42:30.000Z</time>
      </trkpt>
      <trkpt lat="45.35782" lon="6.55427">
        <ele>2312.7</ele>
        <time>2018-08-28T06:42:40.000Z</time>
      </trkpt>
      <trkpt lat="45.35769" lon="6.55433">
        <ele>2316.79</ele>
        <time>2018-08-28T06:42:50.000Z</time>
      </trkpt>
      <trkpt lat="45.35761" lon="6.5544">
        <ele>2318.95</ele>
        <time>2018-08-28T06:43:00.000Z</time>
      </trkpt>
      <trkpt lat="45.3575" lon="6.55449">
        <ele>2317.24</ele>
        <time>2018-08-28T06:43:10.000Z</time>
      </trkpt>
      <trkpt lat="45.35745" lon="6.55462">
        <ele>2314.31</ele>
        <time>2018-08-28T06:43:20.000Z</time>
      </trkpt>
      <trkpt lat="45.35736" lon="6.55471">
        <ele>2316.23</ele>
        <time>2018-08-28T06:43:30.000Z</time>
      </trkpt>
      <trkpt lat="45.35733" lon="6.55481">
        <ele>2318.02</ele>
        <time>2018-08-28T06:43:40.000Z</time>
      </trkpt>
      <trkpt lat="45.35732" lon="6.55495">
        <ele>2327.98</ele>
        <time>2018-08-28T06:43:50.000Z</time>
      </trkpt>
      <trkpt lat="45.35727" lon="6.55509">
        <ele>2329.19</ele>
        <time>2018-08-28T06:44:00.000Z</time>
      </trkpt>
      <trkpt lat="45.35729" lon="6.55518">
        <ele>2327.23</ele>
        <time>2018-08-28T06:44:10.000Z</time>
      </trkpt>
      <trkpt lat="45.3574" lon="6.55513">
        <ele>2323.31</ele>
        <time>2018-08-28T06:44:20.000Z</time>
      </trkpt>
      <trkpt lat="45.35753" lon="6.55504">
        <ele>2322.75</ele>
        <time>2018-08-28T06:44:30.000Z</time>
      </trkpt>
      <trkpt lat="45.35765" lon="6.55508">
        <ele>2324.01</ele>
        <time>2018-08-28T06:44:40.000Z</time>
      </trkpt>
      <trkpt lat="45.35774" lon="6.55505">
        <ele>2327.93</ele>
        <time>2018-08-28T06:44:50.000Z</time>
      </trkpt>
      <trkpt lat="45.35781" lon="6.55515">
        <ele>2332.69</ele>
        <time>2018-08-28T06:45:00.000Z</time>
      </trkpt>
      <trkpt lat="45.35777" lon="6.55524">
        <ele>2330.88</ele>
        <time>2018-08-28T06:45:10.000Z</time>
      </trkpt>
      <trkpt lat="45.35779" lon="6.55538">
        <ele>2333.75</ele>
        <time>2018-08-28T06:45:20.000Z</time>
      </trkpt>
      <trkpt lat="45.3578" lon="6.55544">
        <ele>2332.12</ele>
        <time>2018-08-28T06:45:30.000Z</time>
      </trkpt>
      <trkpt lat="45.35769" lon="6.55557">
        <ele>2334.95</ele>
        <time>2018-08-28T06:45:40.000Z</time>
      </trkpt>
      <trkpt lat="45.3576" lon="6.55563">
        <ele>2339.67</ele>
        <time>2018-08-28T06:45:50.000Z</time>
      </trkpt>
      <trkpt lat="45.3575" lon="6.55565">
        <ele>2340.53</ele>
        <time>2018-08-28T06:46:00.000Z</time>
      </trkpt>
      <trkpt lat="45.35736" lon="6.55566">
        <ele>2345.24</ele>
        <time>2018-08-28T06:46:10.000Z</time>
      </trkpt>
      <trkpt lat="45.35725" lon="6.55571">
        <ele>2342.5</ele>
        <time>2018-08-28T06:46:20.000Z</time>
      </trkpt>
      <trkpt lat="45.35715" lon="6.55568">
        <ele>2345.66</ele>
        <time>2018-08-28T06:46:30.000Z</time>
      </trkpt>
      <trkpt lat="45.35711" lon="6.55564">
        <ele>2352</ele>
        <time>2018-08-28T06:46:40.000Z</time>
      </trkpt>
      <trkpt lat="45.35713" lon="6.55563">
        <ele>2344.13</ele>
        <time>2018-08-28T06:46:50.000Z</time>
      </trkpt>
      <trkpt lat="45.35705" lon="6.55568">
        <ele>2341.31</ele>
        <time>2018-08-28T06:47:00.000Z</time>
      </trkpt>
      <trkpt lat="45.35697" lon="6.55567">
        <ele>2343.25</ele>
        <time>2018-08-28T06:47:10.000Z</time>
      </trkpt>
      <trkpt lat="45.35693" lon="6.5557">
        <ele>2346.76</ele>
        <time>2018-08-28T06:47:20.000Z</time>
      </trkpt>
      <trkpt lat="45.35695" lon="6.55576">
        <ele>2346.01</ele>
        <time>2018-08-28T06:47:30.000Z</time>
      </trkpt>
      <trkpt lat="45.35691" lon="6.55581">
        <ele>2346</ele>
        <time>2018-08-28T06:47:40.000Z</time>
      </trkpt>
      <trkpt lat="45.35691" lon="6.5558">
        <ele>2346</ele>
        <time>2018-08-28T06:47:51.000Z</time>
      </trkpt>
      <trkpt lat="45.3569" lon="6.55581">
        <ele>2346</ele>
        <time>2018-08-28T06:48:01.000Z</time>
      </trkpt>
      <trkpt lat="45.35687" lon="6.55578">
        <ele>2343</ele>
        <time>2018-08-28T06:48:12.000Z</time>
      </trkpt>
      <trkpt lat="45.35667" lon="6.55555">
        <ele>2335.75</ele>
        <time>2018-08-28T06:48:22.000Z</time>
      </trkpt>
      <trkpt lat="45.35654" lon="6.55559">
        <ele>2336.47</ele>
        <time>2018-08-28T06:48:32.000Z</time>
      </trkpt>
      <trkpt lat="45.35649" lon="6.55549">
        <ele>2333.85</ele>
        <time>2018-08-28T06:48:42.000Z</time>
      </trkpt>
      <trkpt lat="45.35626" lon="6.55549">
        <ele>2333.25</ele>
        <time>2018-08-28T06:48:52.000Z</time>
      </trkpt>
      <trkpt lat="45.35625" lon="6.55549">
        <ele>2335</ele>
        <time>2018-08-28T06:49:02.000Z</time>
      </trkpt>
      <trkpt lat="45.35624" lon="6.55547">
        <ele>2335</ele>
        <time>2018-08-28T06:49:20.000Z</time>
      </trkpt>
      <trkpt lat="45.35605" lon="6.5552">
        <ele>2335.19</ele>
        <time>2018-08-28T06:49:30.000Z</time>
      </trkpt>
      <trkpt lat="45.35593" lon="6.55502">
        <ele>2340</ele>
        <time>2018-08-28T06:49:40.000Z</time>
      </trkpt>
      <trkpt lat="45.35597" lon="6.55503">
        <ele>2335.88</ele>
        <time>2018-08-28T06:49:50.000Z</time>
      </trkpt>
      <trkpt lat="45.35582" lon="6.55493">
        <ele>2329</ele>
        <time>2018-08-28T06:50:00.000Z</time>
      </trkpt>
      <trkpt lat="45.3557" lon="6.55479">
        <ele>2328.92</ele>
        <time>2018-08-28T06:50:10.000Z</time>
      </trkpt>
      <trkpt lat="45.35558" lon="6.55468">
        <ele>2330</ele>
        <time>2018-08-28T06:50:20.000Z</time>
      </trkpt>
      <trkpt lat="45.35548" lon="6.55466">
        <ele>2328</ele>
        <time>2018-08-28T06:50:30.000Z</time>
      </trkpt>
      <trkpt lat="45.35537" lon="6.55453">
        <ele>2327.51</ele>
        <time>2018-08-28T06:50:40.000Z</time>
      </trkpt>
      <trkpt lat="45.35529" lon="6.55452">
        <ele>2324.38</ele>
        <time>2018-08-28T06:50:50.000Z</time>
      </trkpt>
      <trkpt lat="45.35517" lon="6.55437">
        <ele>2323.25</ele>
        <time>2018-08-28T06:51:00.000Z</time>
      </trkpt>
      <trkpt lat="45.35508" lon="6.55436">
        <ele>2324.05</ele>
        <time>2018-08-28T06:51:10.000Z</time>
      </trkpt>
      <trkpt lat="45.35499" lon="6.55427">
        <ele>2319.09</ele>
        <time>2018-08-28T06:51:20.000Z</time>
      </trkpt>
      <trkpt lat="45.35481" lon="6.55416">
        <ele>2315.07</ele>
        <time>2018-08-28T06:51:30.000Z</time>
      </trkpt>
      <trkpt lat="45.35473" lon="6.55414">
        <ele>2317.75</ele>
        <time>2018-08-28T06:51:40.000Z</time>
      </trkpt>
      <trkpt lat="45.35459" lon="6.55396">
        <ele>2316.24</ele>
        <time>2018-08-28T06:51:50.000Z</time>
      </trkpt>
      <trkpt lat="45.35451" lon="6.55399">
        <ele>2310.27</ele>
        <time>2018-08-28T06:52:00.000Z</time>
      </trkpt>
      <trkpt lat="45.35438" lon="6.55379">
        <ele>2309.27</ele>
        <time>2018-08-28T06:52:10.000Z</time>
      </trkpt>
      <trkpt lat="45.35435" lon="6.55379">
        <ele>2309.25</ele>
        <time>2018-08-28T06:52:20.000Z</time>
      </trkpt>
      <trkpt lat="45.35428" lon="6.55374">
        <ele>2306.26</ele>
        <time>2018-08-28T06:52:30.000Z</time>
      </trkpt>
      <trkpt lat="45.35426" lon="6.55351">
        <ele>2307.25</ele>
        <time>2018-08-28T06:52:40.000Z</time>
      </trkpt>
      <trkpt lat="45.35407" lon="6.55352">
        <ele>2309.75</ele>
        <time>2018-08-28T06:52:50.000Z</time>
      </trkpt>
      <trkpt lat="45.35397" lon="6.55358">
        <ele>2310.99</ele>
        <time>2018-08-28T06:53:00.000Z</time>
      </trkpt>
      <trkpt lat="45.35382" lon="6.55362">
        <ele>2308.8</ele>
        <time>2018-08-28T06:53:10.000Z</time>
      </trkpt>
      <trkpt lat="45.35368" lon="6.5536">
        <ele>2310</ele>
        <time>2018-08-28T06:53:20.000Z</time>
      </trkpt>
      <trkpt lat="45.35357" lon="6.55357">
        <ele>2313.65</ele>
        <time>2018-08-28T06:53:30.000Z</time>
      </trkpt>
      <trkpt lat="45.35352" lon="6.55356">
        <ele>2312.73</ele>
        <time>2018-08-28T06:53:40.000Z</time>
      </trkpt>
      <trkpt lat="45.35337" lon="6.55346">
        <ele>2309.3</ele>
        <time>2018-08-28T06:53:50.000Z</time>
      </trkpt>
      <trkpt lat="45.35327" lon="6.55346">
        <ele>2303.03</ele>
        <time>2018-08-28T06:54:00.000Z</time>
      </trkpt>
      <trkpt lat="45.35311" lon="6.55337">
        <ele>2301.79</ele>
        <time>2018-08-28T06:54:10.000Z</time>
      </trkpt>
      <trkpt lat="45.35306" lon="6.55334">
        <ele>2302.02</ele>
        <time>2018-08-28T06:54:20.000Z</time>
      </trkpt>
      <trkpt lat="45.35306" lon="6.55333">
        <ele>2302.05</ele>
        <time>2018-08-28T06:54:30.000Z</time>
      </trkpt>
      <trkpt lat="45.35292" lon="6.55327">
        <ele>2294.82</ele>
        <time>2018-08-28T06:54:40.000Z</time>
      </trkpt>
      <trkpt lat="45.3528" lon="6.55316">
        <ele>2292.46</ele>
        <time>2018-08-28T06:54:50.000Z</time>
      </trkpt>
      <trkpt lat="45.35274" lon="6.5531">
        <ele>2293.8</ele>
        <time>2018-08-28T06:55:00.000Z</time>
      </trkpt>
      <trkpt lat="45.35263" lon="6.55288">
        <ele>2294.86</ele>
        <time>2018-08-28T06:55:10.000Z</time>
      </trkpt>
      <trkpt lat="45.3526" lon="6.55288">
        <ele>2289.08</ele>
        <time>2018-08-28T06:55:20.000Z</time>
      </trkpt>
      <trkpt lat="45.3526" lon="6.55278">
        <ele>2286.37</ele>
        <time>2018-08-28T06:55:30.000Z</time>
      </trkpt>
      <trkpt lat="45.35263" lon="6.55248">
        <ele>2280.78</ele>
        <time>2018-08-28T06:55:40.000Z</time>
      </trkpt>
      <trkpt lat="45.35259" lon="6.55237">
        <ele>2284.25</ele>
        <time>2018-08-28T06:55:50.000Z</time>
      </trkpt>
      <trkpt lat="45.35257" lon="6.55226">
        <ele>2281.36</ele>
        <time>2018-08-28T06:56:00.000Z</time>
      </trkpt>
      <trkpt lat="45.35252" lon="6.55205">
        <ele>2278.78</ele>
        <time>2018-08-28T06:56:10.000Z</time>
      </trkpt>
      <trkpt lat="45.35245" lon="6.55183">
        <ele>2284.23</ele>
        <time>2018-08-28T06:56:20.000Z</time>
      </trkpt>
      <trkpt lat="45.35232" lon="6.55165">
        <ele>2280.31</ele>
        <time>2018-08-28T06:56:30.000Z</time>
      </trkpt>
      <trkpt lat="45.35224" lon="6.55155">
        <ele>2275.48</ele>
        <time>2018-08-28T06:56:40.000Z</time>
      </trkpt>
      <trkpt lat="45.35217" lon="6.55153">
        <ele>2276.76</ele>
        <time>2018-08-28T06:56:50.000Z</time>
      </trkpt>
      <trkpt lat="45.35209" lon="6.55131">
        <ele>2277.92</ele>
        <time>2018-08-28T06:57:00.000Z</time>
      </trkpt>
      <trkpt lat="45.35203" lon="6.55129">
        <ele>2278.87</ele>
        <time>2018-08-28T06:57:10.000Z</time>
      </trkpt>
      <trkpt lat="45.35192" lon="6.55115">
        <ele>2282.18</ele>
        <time>2018-08-28T06:57:20.000Z</time>
      </trkpt>
      <trkpt lat="45.35181" lon="6.55093">
        <ele>2282</ele>
        <time>2018-08-28T06:57:30.000Z</time>
      </trkpt>
      <trkpt lat="45.35173" lon="6.55084">
        <ele>2283.22</ele>
        <time>2018-08-28T06:57:40.000Z</time>
      </trkpt>
      <trkpt lat="45.35163" lon="6.55061">
        <ele>2279.5</ele>
        <time>2018-08-28T06:57:50.000Z</time>
      </trkpt>
      <trkpt lat="45.35152" lon="6.55057">
        <ele>2278.01</ele>
        <time>2018-08-28T06:58:00.000Z</time>
      </trkpt>
      <trkpt lat="45.35143" lon="6.55058">
        <ele>2272.75</ele>
        <time>2018-08-28T06:58:10.000Z</time>
      </trkpt>
      <trkpt lat="45.35142" lon="6.55057">
        <ele>2269.99</ele>
        <time>2018-08-28T06:58:20.000Z</time>
      </trkpt>
      <trkpt lat="45.3514" lon="6.55055">
        <ele>2273</ele>
        <time>2018-08-28T06:58:30.000Z</time>
      </trkpt>
      <trkpt lat="45.35139" lon="6.55055">
        <ele>2271.25</ele>
        <time>2018-08-28T06:59:13.000Z</time>
      </trkpt>
      <trkpt lat="45.35128" lon="6.55057">
        <ele>2269.32</ele>
        <time>2018-08-28T06:59:23.000Z</time>
      </trkpt>
      <trkpt lat="45.35114" lon="6.55058">
        <ele>2268.71</ele>
        <time>2018-08-28T06:59:33.000Z</time>
      </trkpt>
      <trkpt lat="45.35101" lon="6.55059">
        <ele>2270</ele>
        <time>2018-08-28T06:59:43.000Z</time>
      </trkpt>
      <trkpt lat="45.3509" lon="6.55058">
        <ele>2270.92</ele>
        <time>2018-08-28T06:59:53.000Z</time>
      </trkpt>
      <trkpt lat="45.35084" lon="6.55058">
        <ele>2273.12</ele>
        <time>2018-08-28T07:00:03.000Z</time>
      </trkpt>
      <trkpt lat="45.35078" lon="6.55056">
        <ele>2271.75</ele>
        <time>2018-08-28T07:00:13.000Z</time>
      </trkpt>
      <trkpt lat="45.35066" lon="6.55054">
        <ele>2266.3</ele>
        <time>2018-08-28T07:00:23.000Z</time>
      </trkpt>
      <trkpt lat="45.35055" lon="6.55047">
        <ele>2263.25</ele>
        <time>2018-08-28T07:00:33.000Z</time>
      </trkpt>
      <trkpt lat="45.35042" lon="6.55037">
        <ele>2265</ele>
        <time>2018-08-28T07:00:43.000Z</time>
      </trkpt>
      <trkpt lat="45.35033" lon="6.55033">
        <ele>2265.93</ele>
        <time>2018-08-28T07:00:53.000Z</time>
      </trkpt>
      <trkpt lat="45.35023" lon="6.55032">
        <ele>2264</ele>
        <time>2018-08-28T07:01:03.000Z</time>
      </trkpt>
      <trkpt lat="45.3501" lon="6.55031">
        <ele>2258.19</ele>
        <time>2018-08-28T07:01:13.000Z</time>
      </trkpt>
      <trkpt lat="45.34994" lon="6.55026">
        <ele>2255.11</ele>
        <time>2018-08-28T07:01:23.000Z</time>
      </trkpt>
      <trkpt lat="45.34983" lon="6.5503">
        <ele>2253.23</ele>
        <time>2018-08-28T07:01:33.000Z</time>
      </trkpt>
      <trkpt lat="45.34969" lon="6.5502">
        <ele>2250.49</ele>
        <time>2018-08-28T07:01:43.000Z</time>
      </trkpt>
      <trkpt lat="45.34954" lon="6.55019">
        <ele>2256.63</ele>
        <time>2018-08-28T07:01:53.000Z</time>
      </trkpt>
      <trkpt lat="45.34942" lon="6.55015">
        <ele>2250.82</ele>
        <time>2018-08-28T07:02:03.000Z</time>
      </trkpt>
      <trkpt lat="45.34937" lon="6.55017">
        <ele>2251.75</ele>
        <time>2018-08-28T07:02:13.000Z</time>
      </trkpt>
      <trkpt lat="45.34922" lon="6.55012">
        <ele>2252.3</ele>
        <time>2018-08-28T07:02:23.000Z</time>
      </trkpt>
      <trkpt lat="45.34911" lon="6.55012">
        <ele>2248.71</ele>
        <time>2018-08-28T07:02:33.000Z</time>
      </trkpt>
      <trkpt lat="45.34895" lon="6.55005">
        <ele>2246.5</ele>
        <time>2018-08-28T07:02:43.000Z</time>
      </trkpt>
      <trkpt lat="45.34882" lon="6.55012">
        <ele>2246.98</ele>
        <time>2018-08-28T07:02:53.000Z</time>
      </trkpt>
      <trkpt lat="45.34874" lon="6.55003">
        <ele>2245.01</ele>
        <time>2018-08-28T07:03:03.000Z</time>
      </trkpt>
      <trkpt lat="45.34867" lon="6.54996">
        <ele>2240.13</ele>
        <time>2018-08-28T07:03:13.000Z</time>
      </trkpt>
      <trkpt lat="45.34866" lon="6.54977">
        <ele>2235.48</ele>
        <time>2018-08-28T07:03:23.000Z</time>
      </trkpt>
      <trkpt lat="45.34865" lon="6.54957">
        <ele>2238.03</ele>
        <time>2018-08-28T07:03:33.000Z</time>
      </trkpt>
      <trkpt lat="45.34868" lon="6.5494">
        <ele>2236.95</ele>
        <time>2018-08-28T07:03:43.000Z</time>
      </trkpt>
      <trkpt lat="45.34868" lon="6.54926">
        <ele>2233.22</ele>
        <time>2018-08-28T07:03:53.000Z</time>
      </trkpt>
      <trkpt lat="45.34864" lon="6.54905">
        <ele>2235.44</ele>
        <time>2018-08-28T07:04:03.000Z</time>
      </trkpt>
      <trkpt lat="45.34857" lon="6.54888">
        <ele>2235.72</ele>
        <time>2018-08-28T07:04:13.000Z</time>
      </trkpt>
      <trkpt lat="45.34852" lon="6.54873">
        <ele>2238.05</ele>
        <time>2018-08-28T07:04:23.000Z</time>
      </trkpt>
      <trkpt lat="45.3484" lon="6.54861">
        <ele>2235.73</ele>
        <time>2018-08-28T07:04:33.000Z</time>
      </trkpt>
      <trkpt lat="45.34834" lon="6.54852">
        <ele>2236.97</ele>
        <time>2018-08-28T07:04:43.000Z</time>
      </trkpt>
      <trkpt lat="45.34825" lon="6.54844">
        <ele>2238.97</ele>
        <time>2018-08-28T07:04:53.000Z</time>
      </trkpt>
      <trkpt lat="45.34815" lon="6.54832">
        <ele>2235.94</ele>
        <time>2018-08-28T07:05:03.000Z</time>
      </trkpt>
      <trkpt lat="45.34809" lon="6.5482">
        <ele>2232.77</ele>
        <time>2018-08-28T07:05:13.000Z</time>
      </trkpt>
      <trkpt lat="45.34801" lon="6.54809">
        <ele>2233.58</ele>
        <time>2018-08-28T07:05:23.000Z</time>
      </trkpt>
      <trkpt lat="45.34795" lon="6.54787">
        <ele>2234.16</ele>
        <time>2018-08-28T07:05:33.000Z</time>
      </trkpt>
      <trkpt lat="45.34794" lon="6.54769">
        <ele>2231.01</ele>
        <time>2018-08-28T07:05:43.000Z</time>
      </trkpt>
      <trkpt lat="45.34798" lon="6.54751">
        <ele>2232.87</ele>
        <time>2018-08-28T07:05:53.000Z</time>
      </trkpt>
      <trkpt lat="45.34794" lon="6.54733">
        <ele>2228.56</ele>
        <time>2018-08-28T07:06:03.000Z</time>
      </trkpt>
      <trkpt lat="45.34786" lon="6.54713">
        <ele>2229.26</ele>
        <time>2018-08-28T07:06:13.000Z</time>
      </trkpt>
      <trkpt lat="45.34779" lon="6.54696">
        <ele>2228.07</ele>
        <time>2018-08-28T07:06:23.000Z</time>
      </trkpt>
      <trkpt lat="45.34778" lon="6.54688">
        <ele>2225</ele>
        <time>2018-08-28T07:06:33.000Z</time>
      </trkpt>
      <trkpt lat="45.34777" lon="6.54669">
        <ele>2222.18</ele>
        <time>2018-08-28T07:06:43.000Z</time>
      </trkpt>
      <trkpt lat="45.34777" lon="6.54651">
        <ele>2226.95</ele>
        <time>2018-08-28T07:06:53.000Z</time>
      </trkpt>
      <trkpt lat="45.34778" lon="6.54648">
        <ele>2231</ele>
        <time>2018-08-28T07:07:03.000Z</time>
      </trkpt>
      <trkpt lat="45.34775" lon="6.54643">
        <ele>2229.5</ele>
        <time>2018-08-28T07:08:01.000Z</time>
      </trkpt>
      <trkpt lat="45.34775" lon="6.54618">
        <ele>2217</ele>
        <time>2018-08-28T07:08:11.000Z</time>
      </trkpt>
      <trkpt lat="45.34775" lon="6.54614">
        <ele>2220.23</ele>
        <time>2018-08-28T07:08:21.000Z</time>
      </trkpt>
      <trkpt lat="45.34774" lon="6.54613">
        <ele>2219.98</ele>
        <time>2018-08-28T07:08:32.000Z</time>
      </trkpt>
      <trkpt lat="45.34768" lon="6.54615">
        <ele>2220.5</ele>
        <time>2018-08-28T07:08:42.000Z</time>
      </trkpt>
      <trkpt lat="45.34758" lon="6.54607">
        <ele>2222.06</ele>
        <time>2018-08-28T07:08:52.000Z</time>
      </trkpt>
      <trkpt lat="45.34746" lon="6.546">
        <ele>2220.19</ele>
        <time>2018-08-28T07:09:02.000Z</time>
      </trkpt>
      <trkpt lat="45.34734" lon="6.54591">
        <ele>2219.62</ele>
        <time>2018-08-28T07:09:12.000Z</time>
      </trkpt>
      <trkpt lat="45.34724" lon="6.54587">
        <ele>2218.82</ele>
        <time>2018-08-28T07:09:22.000Z</time>
      </trkpt>
      <trkpt lat="45.34721" lon="6.54585">
        <ele>2215.03</ele>
        <time>2018-08-28T07:09:32.000Z</time>
      </trkpt>
      <trkpt lat="45.3472" lon="6.54583">
        <ele>2216.76</ele>
        <time>2018-08-28T07:09:42.000Z</time>
      </trkpt>
      <trkpt lat="45.34708" lon="6.54581">
        <ele>2218.82</ele>
        <time>2018-08-28T07:09:52.000Z</time>
      </trkpt>
      <trkpt lat="45.34698" lon="6.5459">
        <ele>2214.33</ele>
        <time>2018-08-28T07:10:02.000Z</time>
      </trkpt>
      <trkpt lat="45.34682" lon="6.54586">
        <ele>2213.94</ele>
        <time>2018-08-28T07:10:12.000Z</time>
      </trkpt>
      <trkpt lat="45.34668" lon="6.5458">
        <ele>2209.26</ele>
        <time>2018-08-28T07:10:22.000Z</time>
      </trkpt>
      <trkpt lat="45.34656" lon="6.54579">
        <ele>2209.98</ele>
        <time>2018-08-28T07:10:32.000Z</time>
      </trkpt>
      <trkpt lat="45.3464" lon="6.54577">
        <ele>2206.19</ele>
        <time>2018-08-28T07:10:42.000Z</time>
      </trkpt>
      <trkpt lat="45.34632" lon="6.54578">
        <ele>2210.76</ele>
        <time>2018-08-28T07:10:52.000Z</time>
      </trkpt>
      <trkpt lat="45.34622" lon="6.54577">
        <ele>2207.31</ele>
        <time>2018-08-28T07:11:02.000Z</time>
      </trkpt>
      <trkpt lat="45.34619" lon="6.54574">
        <ele>2205</ele>
        <time>2018-08-28T07:11:12.000Z</time>
      </trkpt>
      <trkpt lat="45.34619" lon="6.54573">
        <ele>2204.25</ele>
        <time>2018-08-28T07:11:28.000Z</time>
      </trkpt>
      <trkpt lat="45.34603" lon="6.54567">
        <ele>2204.93</ele>
        <time>2018-08-28T07:11:38.000Z</time>
      </trkpt>
      <trkpt lat="45.34592" lon="6.54551">
        <ele>2200.65</ele>
        <time>2018-08-28T07:11:48.000Z</time>
      </trkpt>
      <trkpt lat="45.34576" lon="6.54541">
        <ele>2202.98</ele>
        <time>2018-08-28T07:11:58.000Z</time>
      </trkpt>
      <trkpt lat="45.34566" lon="6.5453">
        <ele>2198.11</ele>
        <time>2018-08-28T07:12:08.000Z</time>
      </trkpt>
      <trkpt lat="45.34555" lon="6.54521">
        <ele>2194.01</ele>
        <time>2018-08-28T07:12:18.000Z</time>
      </trkpt>
      <trkpt lat="45.34544" lon="6.54513">
        <ele>2191.77</ele>
        <time>2018-08-28T07:12:28.000Z</time>
      </trkpt>
      <trkpt lat="45.34535" lon="6.54505">
        <ele>2192.06</ele>
        <time>2018-08-28T07:12:38.000Z</time>
      </trkpt>
      <trkpt lat="45.34518" lon="6.54497">
        <ele>2191.56</ele>
        <time>2018-08-28T07:12:48.000Z</time>
      </trkpt>
      <trkpt lat="45.34505" lon="6.54491">
        <ele>2191.11</ele>
        <time>2018-08-28T07:12:58.000Z</time>
      </trkpt>
      <trkpt lat="45.34488" lon="6.54485">
        <ele>2185.25</ele>
        <time>2018-08-28T07:13:08.000Z</time>
      </trkpt>
      <trkpt lat="45.34482" lon="6.54476">
        <ele>2186.03</ele>
        <time>2018-08-28T07:13:18.000Z</time>
      </trkpt>
      <trkpt lat="45.34474" lon="6.54471">
        <ele>2190.75</ele>
        <time>2018-08-28T07:13:28.000Z</time>
      </trkpt>
      <trkpt lat="45.34463" lon="6.5447">
        <ele>2186.02</ele>
        <time>2018-08-28T07:13:38.000Z</time>
      </trkpt>
      <trkpt lat="45.34452" lon="6.54469">
        <ele>2185</ele>
        <time>2018-08-28T07:13:48.000Z</time>
      </trkpt>
      <trkpt lat="45.34442" lon="6.54465">
        <ele>2187.17</ele>
        <time>2018-08-28T07:13:58.000Z</time>
      </trkpt>
      <trkpt lat="45.34424" lon="6.54465">
        <ele>2219.3</ele>
        <time>2018-08-28T07:14:08.000Z</time>
      </trkpt>
      <trkpt lat="45.3441" lon="6.54458">
        <ele>2189.6</ele>
        <time>2018-08-28T07:14:18.000Z</time>
      </trkpt>
      <trkpt lat="45.34404" lon="6.5446">
        <ele>2183.75</ele>
        <time>2018-08-28T07:14:28.000Z</time>
      </trkpt>
      <trkpt lat="45.34394" lon="6.54455">
        <ele>2178.88</ele>
        <time>2018-08-28T07:14:38.000Z</time>
      </trkpt>
      <trkpt lat="45.34382" lon="6.54452">
        <ele>2175.58</ele>
        <time>2018-08-28T07:14:48.000Z</time>
      </trkpt>
      <trkpt lat="45.34375" lon="6.54449">
        <ele>2175.21</ele>
        <time>2018-08-28T07:14:58.000Z</time>
      </trkpt>
      <trkpt lat="45.34361" lon="6.54443">
        <ele>2167.47</ele>
        <time>2018-08-28T07:15:08.000Z</time>
      </trkpt>
      <trkpt lat="45.34363" lon="6.54443">
        <ele>2161.58</ele>
        <time>2018-08-28T07:15:18.000Z</time>
      </trkpt>
      <trkpt lat="45.34364" lon="6.54445">
        <ele>2163</ele>
        <time>2018-08-28T07:15:28.000Z</time>
      </trkpt>
      <trkpt lat="45.34357" lon="6.54441">
        <ele>2164.5</ele>
        <time>2018-08-28T07:15:49.000Z</time>
      </trkpt>
      <trkpt lat="45.34332" lon="6.5443">
        <ele>2165</ele>
        <time>2018-08-28T07:15:59.000Z</time>
      </trkpt>
      <trkpt lat="45.34331" lon="6.54428">
        <ele>2163.06</ele>
        <time>2018-08-28T07:16:09.000Z</time>
      </trkpt>
      <trkpt lat="45.34327" lon="6.54427">
        <ele>2163</ele>
        <time>2018-08-28T07:16:30.000Z</time>
      </trkpt>
      <trkpt lat="45.34314" lon="6.54422">
        <ele>2156.33</ele>
        <time>2018-08-28T07:16:40.000Z</time>
      </trkpt>
      <trkpt lat="45.34295" lon="6.54408">
        <ele>2158.74</ele>
        <time>2018-08-28T07:16:50.000Z</time>
      </trkpt>
      <trkpt lat="45.34292" lon="6.54394">
        <ele>2159.94</ele>
        <time>2018-08-28T07:17:00.000Z</time>
      </trkpt>
      <trkpt lat="45.34296" lon="6.54393">
        <ele>2153.01</ele>
        <time>2018-08-28T07:17:10.000Z</time>
      </trkpt>
      <trkpt lat="45.34295" lon="6.54392">
        <ele>2152</ele>
        <time>2018-08-28T07:17:20.000Z</time>
      </trkpt>
      <trkpt lat="45.34292" lon="6.54387">
        <ele>2154.23</ele>
        <time>2018-08-28T07:17:30.000Z</time>
      </trkpt>
      <trkpt lat="45.34289" lon="6.54382">
        <ele>2154.19</ele>
        <time>2018-08-28T07:17:40.000Z</time>
      </trkpt>
      <trkpt lat="45.34271" lon="6.54361">
        <ele>2160.74</ele>
        <time>2018-08-28T07:17:50.000Z</time>
      </trkpt>
      <trkpt lat="45.34253" lon="6.54352">
        <ele>2165.93</ele>
        <time>2018-08-28T07:18:00.000Z</time>
      </trkpt>
      <trkpt lat="45.34237" lon="6.5435">
        <ele>2167.01</ele>
        <time>2018-08-28T07:18:10.000Z</time>
      </trkpt>
      <trkpt lat="45.34223" lon="6.54334">
        <ele>2170.2</ele>
        <time>2018-08-28T07:18:20.000Z</time>
      </trkpt>
      <trkpt lat="45.34212" lon="6.54317">
        <ele>2143.09</ele>
        <time>2018-08-28T07:18:30.000Z</time>
      </trkpt>
      <trkpt lat="45.34198" lon="6.54319">
        <ele>2143.94</ele>
        <time>2018-08-28T07:18:40.000Z</time>
      </trkpt>
      <trkpt lat="45.34182" lon="6.54328">
        <ele>2150.16</ele>
        <time>2018-08-28T07:18:50.000Z</time>
      </trkpt>
      <trkpt lat="45.34175" lon="6.54324">
        <ele>2147</ele>
        <time>2018-08-28T07:19:00.000Z</time>
      </trkpt>
      <trkpt lat="45.34166" lon="6.5432">
        <ele>2138.13</ele>
        <time>2018-08-28T07:19:10.000Z</time>
      </trkpt>
      <trkpt lat="45.34148" lon="6.54317">
        <ele>2140.98</ele>
        <time>2018-08-28T07:19:20.000Z</time>
      </trkpt>
      <trkpt lat="45.34123" lon="6.54313">
        <ele>2133.5</ele>
        <time>2018-08-28T07:19:30.000Z</time>
      </trkpt>
      <trkpt lat="45.3412" lon="6.54314">
        <ele>2132.38</ele>
        <time>2018-08-28T07:19:40.000Z</time>
      </trkpt>
      <trkpt lat="45.34116" lon="6.5431">
        <ele>2124.28</ele>
        <time>2018-08-28T07:19:50.000Z</time>
      </trkpt>
      <trkpt lat="45.34092" lon="6.54312">
        <ele>2132.92</ele>
        <time>2018-08-28T07:20:00.000Z</time>
      </trkpt>
      <trkpt lat="45.34081" lon="6.54309">
        <ele>2130.25</ele>
        <time>2018-08-28T07:20:10.000Z</time>
      </trkpt>
      <trkpt lat="45.34062" lon="6.54323">
        <ele>2140.9</ele>
        <time>2018-08-28T07:20:20.000Z</time>
      </trkpt>
      <trkpt lat="45.34057" lon="6.54323">
        <ele>2137.77</ele>
        <time>2018-08-28T07:20:30.000Z</time>
      </trkpt>
      <trkpt lat="45.34046" lon="6.54339">
        <ele>2137.19</ele>
        <time>2018-08-28T07:20:40.000Z</time>
      </trkpt>
      <trkpt lat="45.34037" lon="6.54364">
        <ele>2135.92</ele>
        <time>2018-08-28T07:20:50.000Z</time>
      </trkpt>
      <trkpt lat="45.3403" lon="6.54383">
        <ele>2140.25</ele>
        <time>2018-08-28T07:21:00.000Z</time>
      </trkpt>
      <trkpt lat="45.34032" lon="6.5436">
        <ele>2140.58</ele>
        <time>2018-08-28T07:21:10.000Z</time>
      </trkpt>
      <trkpt lat="45.34023" lon="6.54385">
        <ele>2132.25</ele>
        <time>2018-08-28T07:21:20.000Z</time>
      </trkpt>
      <trkpt lat="45.34015" lon="6.54401">
        <ele>2122.58</ele>
        <time>2018-08-28T07:21:30.000Z</time>
      </trkpt>
      <trkpt lat="45.34008" lon="6.54415">
        <ele>2124.98</ele>
        <time>2018-08-28T07:21:40.000Z</time>
      </trkpt>
      <trkpt lat="45.34" lon="6.54425">
        <ele>2124.04</ele>
        <time>2018-08-28T07:21:50.000Z</time>
      </trkpt>
      <trkpt lat="45.33986" lon="6.54434">
        <ele>2116.27</ele>
        <time>2018-08-28T07:22:00.000Z</time>
      </trkpt>
      <trkpt lat="45.33979" lon="6.54448">
        <ele>2125.25</ele>
        <time>2018-08-28T07:22:10.000Z</time>
      </trkpt>
      <trkpt lat="45.33971" lon="6.54453">
        <ele>2114.05</ele>
        <time>2018-08-28T07:22:20.000Z</time>
      </trkpt>
      <trkpt lat="45.33949" lon="6.54461">
        <ele>2117.7</ele>
        <time>2018-08-28T07:22:30.000Z</time>
      </trkpt>
      <trkpt lat="45.33932" lon="6.54467">
        <ele>2107.13</ele>
        <time>2018-08-28T07:22:40.000Z</time>
      </trkpt>
      <trkpt lat="45.33929" lon="6.54472">
        <ele>2114.26</ele>
        <time>2018-08-28T07:22:50.000Z</time>
      </trkpt>
      <trkpt lat="45.33928" lon="6.54477">
        <ele>2113.05</ele>
        <time>2018-08-28T07:23:00.000Z</time>
      </trkpt>
      <trkpt lat="45.33905" lon="6.54481">
        <ele>2108.19</ele>
        <time>2018-08-28T07:23:10.000Z</time>
      </trkpt>
      <trkpt lat="45.33886" lon="6.54477">
        <ele>2116.82</ele>
        <time>2018-08-28T07:23:20.000Z</time>
      </trkpt>
      <trkpt lat="45.33864" lon="6.5447">
        <ele>2125.44</ele>
        <time>2018-08-28T07:23:30.000Z</time>
      </trkpt>
      <trkpt lat="45.33844" lon="6.5446">
        <ele>2124.34</ele>
        <time>2018-08-28T07:23:40.000Z</time>
      </trkpt>
      <trkpt lat="45.33839" lon="6.54456">
        <ele>2116.84</ele>
        <time>2018-08-28T07:23:50.000Z</time>
      </trkpt>
      <trkpt lat="45.33838" lon="6.54453">
        <ele>2105.87</ele>
        <time>2018-08-28T07:24:00.000Z</time>
      </trkpt>
      <trkpt lat="45.33833" lon="6.54443">
        <ele>2102.52</ele>
        <time>2018-08-28T07:24:10.000Z</time>
      </trkpt>
      <trkpt lat="45.33821" lon="6.54431">
        <ele>2103.06</ele>
        <time>2018-08-28T07:24:20.000Z</time>
      </trkpt>
      <trkpt lat="45.33808" lon="6.54417">
        <ele>2098.07</ele>
        <time>2018-08-28T07:24:30.000Z</time>
      </trkpt>
      <trkpt lat="45.33797" lon="6.54413">
        <ele>2096</ele>
        <time>2018-08-28T07:24:40.000Z</time>
      </trkpt>
      <trkpt lat="45.33784" lon="6.54404">
        <ele>2098</ele>
        <time>2018-08-28T07:24:50.000Z</time>
      </trkpt>
      <trkpt lat="45.33771" lon="6.54398">
        <ele>2095.33</ele>
        <time>2018-08-28T07:25:00.000Z</time>
      </trkpt>
      <trkpt lat="45.33755" lon="6.54389">
        <ele>2102.1</ele>
        <time>2018-08-28T07:25:10.000Z</time>
      </trkpt>
      <trkpt lat="45.33753" lon="6.54391">
        <ele>2091.42</ele>
        <time>2018-08-28T07:25:20.000Z</time>
      </trkpt>
      <trkpt lat="45.33741" lon="6.54399">
        <ele>2079.08</ele>
        <time>2018-08-28T07:25:30.000Z</time>
      </trkpt>
      <trkpt lat="45.33722" lon="6.54397">
        <ele>2088.08</ele>
        <time>2018-08-28T07:25:40.000Z</time>
      </trkpt>
      <trkpt lat="45.33704" lon="6.54401">
        <ele>2097.98</ele>
        <time>2018-08-28T07:25:50.000Z</time>
      </trkpt>
      <trkpt lat="45.33684" lon="6.54402">
        <ele>2103.65</ele>
        <time>2018-08-28T07:26:00.000Z</time>
      </trkpt>
      <trkpt lat="45.33675" lon="6.54403">
        <ele>2099.09</ele>
        <time>2018-08-28T07:26:10.000Z</time>
      </trkpt>
      <trkpt lat="45.33666" lon="6.54399">
        <ele>2097.7</ele>
        <time>2018-08-28T07:26:20.000Z</time>
      </trkpt>
      <trkpt lat="45.33664" lon="6.54398">
        <ele>2080.35</ele>
        <time>2018-08-28T07:26:30.000Z</time>
      </trkpt>
      <trkpt lat="45.33646" lon="6.54395">
        <ele>2090.93</ele>
        <time>2018-08-28T07:26:40.000Z</time>
      </trkpt>
      <trkpt lat="45.33626" lon="6.54378">
        <ele>2084.38</ele>
        <time>2018-08-28T07:26:50.000Z</time>
      </trkpt>
      <trkpt lat="45.33621" lon="6.54374">
        <ele>2077.24</ele>
        <time>2018-08-28T07:27:00.000Z</time>
      </trkpt>
      <trkpt lat="45.33614" lon="6.54368">
        <ele>2066.09</ele>
        <time>2018-08-28T07:27:10.000Z</time>
      </trkpt>
      <trkpt lat="45.33598" lon="6.54341">
        <ele>2078</ele>
        <time>2018-08-28T07:27:20.000Z</time>
      </trkpt>
      <trkpt lat="45.3359" lon="6.54339">
        <ele>2072.16</ele>
        <time>2018-08-28T07:27:30.000Z</time>
      </trkpt>
      <trkpt lat="45.33578" lon="6.54329">
        <ele>2075.95</ele>
        <time>2018-08-28T07:27:40.000Z</time>
      </trkpt>
      <trkpt lat="45.33561" lon="6.54322">
        <ele>2075.08</ele>
        <time>2018-08-28T07:27:50.000Z</time>
      </trkpt>
      <trkpt lat="45.33558" lon="6.5433">
        <ele>2077.11</ele>
        <time>2018-08-28T07:28:00.000Z</time>
      </trkpt>
      <trkpt lat="45.33539" lon="6.54332">
        <ele>2082.1</ele>
        <time>2018-08-28T07:28:10.000Z</time>
      </trkpt>
      <trkpt lat="45.33521" lon="6.54334">
        <ele>2075.28</ele>
        <time>2018-08-28T07:28:20.000Z</time>
      </trkpt>
      <trkpt lat="45.33516" lon="6.5434">
        <ele>2071.83</ele>
        <time>2018-08-28T07:28:30.000Z</time>
      </trkpt>
      <trkpt lat="45.33516" lon="6.54344">
        <ele>2072.33</ele>
        <time>2018-08-28T07:28:40.000Z</time>
      </trkpt>
      <trkpt lat="45.3351" lon="6.54343">
        <ele>2069.83</ele>
        <time>2018-08-28T07:28:50.000Z</time>
      </trkpt>
      <trkpt lat="45.33488" lon="6.54342">
        <ele>2070.11</ele>
        <time>2018-08-28T07:29:00.000Z</time>
      </trkpt>
      <trkpt lat="45.33468" lon="6.54331">
        <ele>2064.09</ele>
        <time>2018-08-28T07:29:10.000Z</time>
      </trkpt>
      <trkpt lat="45.33457" lon="6.5433">
        <ele>2067.97</ele>
        <time>2018-08-28T07:29:20.000Z</time>
      </trkpt>
      <trkpt lat="45.33437" lon="6.54321">
        <ele>2061.27</ele>
        <time>2018-08-28T07:29:30.000Z</time>
      </trkpt>
      <trkpt lat="45.33442" lon="6.54315">
        <ele>2056.01</ele>
        <time>2018-08-28T07:29:40.000Z</time>
      </trkpt>
      <trkpt lat="45.33441" lon="6.54302">
        <ele>2055.5</ele>
        <time>2018-08-28T07:29:50.000Z</time>
      </trkpt>
      <trkpt lat="45.33429" lon="6.54287">
        <ele>2051.97</ele>
        <time>2018-08-28T07:30:00.000Z</time>
      </trkpt>
      <trkpt lat="45.3342" lon="6.54282">
        <ele>2045.88</ele>
        <time>2018-08-28T07:30:10.000Z</time>
      </trkpt>
      <trkpt lat="45.33412" lon="6.54287">
        <ele>2043.53</ele>
        <time>2018-08-28T07:30:20.000Z</time>
      </trkpt>
      <trkpt lat="45.33403" lon="6.54285">
        <ele>2037.55</ele>
        <time>2018-08-28T07:30:30.000Z</time>
      </trkpt>
      <trkpt lat="45.33392" lon="6.54283">
        <ele>2036.5</ele>
        <time>2018-08-28T07:30:40.000Z</time>
      </trkpt>
      <trkpt lat="45.33386" lon="6.5427">
        <ele>2036.44</ele>
        <time>2018-08-28T07:30:50.000Z</time>
      </trkpt>
      <trkpt lat="45.33386" lon="6.54256">
        <ele>2036.98</ele>
        <time>2018-08-28T07:31:00.000Z</time>
      </trkpt>
    </trkseg>
  </trk>
</gpx>